<?xml version="1.0" encoding="UTF-8"?>
<gpx xmlns="http://www.topografix.com/GPX/1/1" version="1.1" xmlns:xsi="http://www.w3.org/2001/XMLSchema-instance" xsi:schemaLocation="http://www.topografix.com/GPX/1/1 http://www.topografix.com/GPX/1/1/gpx.xsd" creator="MotionXGPSFull 24.4 Build 5112 R64">
<trk>
<name><![CDATA[VRS Pretrip x]]></name>
<desc><![CDATA[Nov 12, 2017 11:58 am]]></desc>
<trkseg>
<trkpt lat="22.2390129" lon="114.2229433">
<ele>33.488</ele>
<time>2017-11-12T03:58:19.038Z</time>
</trkpt>
<trkpt lat="22.2390043" lon="114.2229501">
<ele>34.005</ele>
<time>2017-11-12T03:58:20.251Z</time>
</trkpt>
<trkpt lat="22.2389660" lon="114.2230410">
<ele>35.365</ele>
<time>2017-11-12T03:58:30.827Z</time>
</trkpt>
<trkpt lat="22.2389638" lon="114.2231449">
<ele>35.744</ele>
<time>2017-11-12T03:58:42.193Z</time>
</trkpt>
<trkpt lat="22.2389360" lon="114.2232493">
<ele>33.273</ele>
<time>2017-11-12T03:58:52.600Z</time>
</trkpt>
<trkpt lat="22.2389205" lon="114.2233535">
<ele>29.388</ele>
<time>2017-11-12T03:59:00.869Z</time>
</trkpt>
<trkpt lat="22.2389461" lon="114.2234545">
<ele>26.683</ele>
<time>2017-11-12T03:59:10.094Z</time>
</trkpt>
<trkpt lat="22.2389270" lon="114.2235644">
<ele>25.737</ele>
<time>2017-11-12T03:59:20.380Z</time>
</trkpt>
<trkpt lat="22.2388872" lon="114.2236628">
<ele>25.796</ele>
<time>2017-11-12T03:59:27.639Z</time>
</trkpt>
<trkpt lat="22.2387974" lon="114.2237220">
<ele>26.159</ele>
<time>2017-11-12T03:59:33.998Z</time>
</trkpt>
<trkpt lat="22.2387365" lon="114.2237937">
<ele>26.455</ele>
<time>2017-11-12T03:59:39.430Z</time>
</trkpt>
<trkpt lat="22.2386520" lon="114.2238708">
<ele>26.533</ele>
<time>2017-11-12T03:59:46.626Z</time>
</trkpt>
<trkpt lat="22.2385803" lon="114.2239401">
<ele>26.366</ele>
<time>2017-11-12T03:59:52.849Z</time>
</trkpt>
<trkpt lat="22.2385398" lon="114.2240314">
<ele>26.054</ele>
<time>2017-11-12T03:59:59.039Z</time>
</trkpt>
<trkpt lat="22.2384787" lon="114.2241051">
<ele>25.352</ele>
<time>2017-11-12T04:00:07.677Z</time>
</trkpt>
<trkpt lat="22.2384158" lon="114.2241888">
<ele>23.979</ele>
<time>2017-11-12T04:00:17.820Z</time>
</trkpt>
<trkpt lat="22.2383900" lon="114.2242846">
<ele>22.374</ele>
<time>2017-11-12T04:00:28.773Z</time>
</trkpt>
<trkpt lat="22.2384815" lon="114.2242724">
<ele>20.775</ele>
<time>2017-11-12T04:00:40.346Z</time>
</trkpt>
<trkpt lat="22.2385726" lon="114.2242604">
<ele>18.839</ele>
<time>2017-11-12T04:00:48.387Z</time>
</trkpt>
<trkpt lat="22.2386647" lon="114.2242411">
<ele>16.842</ele>
<time>2017-11-12T04:00:56.034Z</time>
</trkpt>
<trkpt lat="22.2387693" lon="114.2242294">
<ele>15.469</ele>
<time>2017-11-12T04:01:05.271Z</time>
</trkpt>
<trkpt lat="22.2388658" lon="114.2241904">
<ele>14.912</ele>
<time>2017-11-12T04:01:13.835Z</time>
</trkpt>
<trkpt lat="22.2389605" lon="114.2241566">
<ele>14.826</ele>
<time>2017-11-12T04:01:21.089Z</time>
</trkpt>
<trkpt lat="22.2390582" lon="114.2241361">
<ele>14.531</ele>
<time>2017-11-12T04:01:28.508Z</time>
</trkpt>
<trkpt lat="22.2391519" lon="114.2241209">
<ele>13.495</ele>
<time>2017-11-12T04:01:36.244Z</time>
</trkpt>
<trkpt lat="22.2392441" lon="114.2241131">
<ele>11.934</ele>
<time>2017-11-12T04:01:44.499Z</time>
</trkpt>
<trkpt lat="22.2393310" lon="114.2240696">
<ele>10.378</ele>
<time>2017-11-12T04:01:53.514Z</time>
</trkpt>
<trkpt lat="22.2394285" lon="114.2240613">
<ele>8.792</ele>
<time>2017-11-12T04:02:01.693Z</time>
</trkpt>
<trkpt lat="22.2395252" lon="114.2240540">
<ele>7.034</ele>
<time>2017-11-12T04:02:09.519Z</time>
</trkpt>
<trkpt lat="22.2396123" lon="114.2240288">
<ele>5.530</ele>
<time>2017-11-12T04:02:16.773Z</time>
</trkpt>
<trkpt lat="22.2397018" lon="114.2240088">
<ele>4.585</ele>
<time>2017-11-12T04:02:23.736Z</time>
</trkpt>
<trkpt lat="22.2397910" lon="114.2239859">
<ele>3.985</ele>
<time>2017-11-12T04:02:30.688Z</time>
</trkpt>
<trkpt lat="22.2398932" lon="114.2239695">
<ele>3.552</ele>
<time>2017-11-12T04:02:38.602Z</time>
</trkpt>
<trkpt lat="22.2399844" lon="114.2239694">
<ele>3.225</ele>
<time>2017-11-12T04:02:45.626Z</time>
</trkpt>
<trkpt lat="22.2400788" lon="114.2239624">
<ele>2.917</ele>
<time>2017-11-12T04:02:53.062Z</time>
</trkpt>
<trkpt lat="22.2401700" lon="114.2239449">
<ele>2.623</ele>
<time>2017-11-12T04:03:00.474Z</time>
</trkpt>
<trkpt lat="22.2402626" lon="114.2239353">
<ele>2.302</ele>
<time>2017-11-12T04:03:07.764Z</time>
</trkpt>
<trkpt lat="22.2403598" lon="114.2239259">
<ele>1.714</ele>
<time>2017-11-12T04:03:15.673Z</time>
</trkpt>
<trkpt lat="22.2404555" lon="114.2239102">
<ele>0.840</ele>
<time>2017-11-12T04:03:24.060Z</time>
</trkpt>
<trkpt lat="22.2405483" lon="114.2238827">
<ele>0.039</ele>
<time>2017-11-12T04:03:32.231Z</time>
</trkpt>
<trkpt lat="22.2406478" lon="114.2238727">
<ele>0.000</ele>
<time>2017-11-12T04:03:40.707Z</time>
</trkpt>
<trkpt lat="22.2407486" lon="114.2238710">
<ele>0.000</ele>
<time>2017-11-12T04:03:49.204Z</time>
</trkpt>
<trkpt lat="22.2408480" lon="114.2238590">
<ele>0.000</ele>
<time>2017-11-12T04:03:57.266Z</time>
</trkpt>
<trkpt lat="22.2409407" lon="114.2238444">
<ele>0.000</ele>
<time>2017-11-12T04:04:04.923Z</time>
</trkpt>
<trkpt lat="22.2410309" lon="114.2238293">
<ele>0.000</ele>
<time>2017-11-12T04:04:13.083Z</time>
</trkpt>
<trkpt lat="22.2411299" lon="114.2238136">
<ele>0.000</ele>
<time>2017-11-12T04:04:21.951Z</time>
</trkpt>
<trkpt lat="22.2412243" lon="114.2238024">
<ele>0.000</ele>
<time>2017-11-12T04:04:29.164Z</time>
</trkpt>
<trkpt lat="22.2413189" lon="114.2237604">
<ele>0.000</ele>
<time>2017-11-12T04:04:35.698Z</time>
</trkpt>
<trkpt lat="22.2414115" lon="114.2237461">
<ele>0.000</ele>
<time>2017-11-12T04:04:41.651Z</time>
</trkpt>
<trkpt lat="22.2415027" lon="114.2237349">
<ele>0.000</ele>
<time>2017-11-12T04:04:47.980Z</time>
</trkpt>
<trkpt lat="22.2415946" lon="114.2237142">
<ele>0.000</ele>
<time>2017-11-12T04:04:57.688Z</time>
</trkpt>
<trkpt lat="22.2416878" lon="114.2236741">
<ele>0.000</ele>
<time>2017-11-12T04:05:07.832Z</time>
</trkpt>
<trkpt lat="22.2417773" lon="114.2236283">
<ele>0.000</ele>
<time>2017-11-12T04:05:15.609Z</time>
</trkpt>
<trkpt lat="22.2418684" lon="114.2235734">
<ele>0.000</ele>
<time>2017-11-12T04:05:23.181Z</time>
</trkpt>
<trkpt lat="22.2419467" lon="114.2235005">
<ele>0.000</ele>
<time>2017-11-12T04:05:30.666Z</time>
</trkpt>
<trkpt lat="22.2420159" lon="114.2234309">
<ele>0.000</ele>
<time>2017-11-12T04:05:37.615Z</time>
</trkpt>
<trkpt lat="22.2420896" lon="114.2233744">
<ele>0.000</ele>
<time>2017-11-12T04:05:44.691Z</time>
</trkpt>
<trkpt lat="22.2421675" lon="114.2233127">
<ele>0.000</ele>
<time>2017-11-12T04:05:52.487Z</time>
</trkpt>
<trkpt lat="22.2422372" lon="114.2232491">
<ele>0.000</ele>
<time>2017-11-12T04:05:59.108Z</time>
</trkpt>
<trkpt lat="22.2423281" lon="114.2232231">
<ele>0.000</ele>
<time>2017-11-12T04:06:05.723Z</time>
</trkpt>
<trkpt lat="22.2424047" lon="114.2231650">
<ele>0.000</ele>
<time>2017-11-12T04:06:12.570Z</time>
</trkpt>
<trkpt lat="22.2424684" lon="114.2230890">
<ele>0.000</ele>
<time>2017-11-12T04:06:19.619Z</time>
</trkpt>
<trkpt lat="22.2425397" lon="114.2230179">
<ele>0.000</ele>
<time>2017-11-12T04:06:26.812Z</time>
</trkpt>
<trkpt lat="22.2426102" lon="114.2229557">
<ele>0.000</ele>
<time>2017-11-12T04:06:33.790Z</time>
</trkpt>
<trkpt lat="22.2427050" lon="114.2229668">
<ele>0.000</ele>
<time>2017-11-12T04:06:43.487Z</time>
</trkpt>
<trkpt lat="22.2428088" lon="114.2229557">
<ele>0.000</ele>
<time>2017-11-12T04:06:53.891Z</time>
</trkpt>
<trkpt lat="22.2429045" lon="114.2229298">
<ele>0.000</ele>
<time>2017-11-12T04:07:00.643Z</time>
</trkpt>
<trkpt lat="22.2429928" lon="114.2228843">
<ele>0.000</ele>
<time>2017-11-12T04:07:06.903Z</time>
</trkpt>
<trkpt lat="22.2430832" lon="114.2228398">
<ele>0.000</ele>
<time>2017-11-12T04:07:14.161Z</time>
</trkpt>
<trkpt lat="22.2431713" lon="114.2228005">
<ele>0.000</ele>
<time>2017-11-12T04:07:22.519Z</time>
</trkpt>
<trkpt lat="22.2432577" lon="114.2227595">
<ele>0.000</ele>
<time>2017-11-12T04:07:30.356Z</time>
</trkpt>
<trkpt lat="22.2433377" lon="114.2227153">
<ele>0.000</ele>
<time>2017-11-12T04:07:36.585Z</time>
</trkpt>
<trkpt lat="22.2434363" lon="114.2226875">
<ele>0.000</ele>
<time>2017-11-12T04:07:43.344Z</time>
</trkpt>
<trkpt lat="22.2435386" lon="114.2226813">
<ele>0.326</ele>
<time>2017-11-12T04:07:50.221Z</time>
</trkpt>
<trkpt lat="22.2436395" lon="114.2226692">
<ele>0.495</ele>
<time>2017-11-12T04:07:57.161Z</time>
</trkpt>
<trkpt lat="22.2437385" lon="114.2226572">
<ele>0.698</ele>
<time>2017-11-12T04:08:03.965Z</time>
</trkpt>
<trkpt lat="22.2438378" lon="114.2226608">
<ele>0.987</ele>
<time>2017-11-12T04:08:10.821Z</time>
</trkpt>
<trkpt lat="22.2439289" lon="114.2226805">
<ele>1.277</ele>
<time>2017-11-12T04:08:17.818Z</time>
</trkpt>
<trkpt lat="22.2440214" lon="114.2226909">
<ele>1.506</ele>
<time>2017-11-12T04:08:25.135Z</time>
</trkpt>
<trkpt lat="22.2441210" lon="114.2227121">
<ele>1.470</ele>
<time>2017-11-12T04:08:33.022Z</time>
</trkpt>
<trkpt lat="22.2442095" lon="114.2226896">
<ele>1.074</ele>
<time>2017-11-12T04:08:40.087Z</time>
</trkpt>
<trkpt lat="22.2442845" lon="114.2226303">
<ele>0.652</ele>
<time>2017-11-12T04:08:47.468Z</time>
</trkpt>
<trkpt lat="22.2443740" lon="114.2226121">
<ele>0.503</ele>
<time>2017-11-12T04:08:55.609Z</time>
</trkpt>
<trkpt lat="22.2444428" lon="114.2225476">
<ele>0.375</ele>
<time>2017-11-12T04:09:04.228Z</time>
</trkpt>
<trkpt lat="22.2445332" lon="114.2225118">
<ele>0.013</ele>
<time>2017-11-12T04:09:12.563Z</time>
</trkpt>
<trkpt lat="22.2446257" lon="114.2224648">
<ele>0.000</ele>
<time>2017-11-12T04:09:20.527Z</time>
</trkpt>
<trkpt lat="22.2446883" lon="114.2223916">
<ele>0.000</ele>
<time>2017-11-12T04:09:27.037Z</time>
</trkpt>
<trkpt lat="22.2447537" lon="114.2223174">
<ele>0.000</ele>
<time>2017-11-12T04:09:33.476Z</time>
</trkpt>
<trkpt lat="22.2447961" lon="114.2222281">
<ele>0.000</ele>
<time>2017-11-12T04:09:40.373Z</time>
</trkpt>
<trkpt lat="22.2447501" lon="114.2221336">
<ele>0.000</ele>
<time>2017-11-12T04:09:48.027Z</time>
</trkpt>
<trkpt lat="22.2447501" lon="114.2221336">
<ele>0.000</ele>
<time>2017-11-12T04:09:55.027Z</time>
</trkpt>
<trkpt lat="22.2447501" lon="114.2221336">
<ele>0.000</ele>
<time>2017-11-12T04:13:32.916Z</time>
</trkpt>
<trkpt lat="22.2445789" lon="114.2219730">
<ele>0.000</ele>
<time>2017-11-12T04:15:09.840Z</time>
</trkpt>
<trkpt lat="22.2445491" lon="114.2218769">
<ele>0.000</ele>
<time>2017-11-12T04:15:18.899Z</time>
</trkpt>
<trkpt lat="22.2446099" lon="114.2218007">
<ele>0.000</ele>
<time>2017-11-12T04:15:25.497Z</time>
</trkpt>
<trkpt lat="22.2446686" lon="114.2217182">
<ele>0.000</ele>
<time>2017-11-12T04:15:32.066Z</time>
</trkpt>
<trkpt lat="22.2447086" lon="114.2216214">
<ele>0.000</ele>
<time>2017-11-12T04:15:39.025Z</time>
</trkpt>
<trkpt lat="22.2447086" lon="114.2216214">
<ele>0.000</ele>
<time>2017-11-12T04:15:41.025Z</time>
</trkpt>
<trkpt lat="22.2447086" lon="114.2216214">
<ele>0.000</ele>
<time>2017-11-12T04:16:33.465Z</time>
</trkpt>
<trkpt lat="22.2448291" lon="114.2215552">
<ele>0.000</ele>
<time>2017-11-12T04:16:49.597Z</time>
</trkpt>
<trkpt lat="22.2449103" lon="114.2215073">
<ele>0.000</ele>
<time>2017-11-12T04:16:56.023Z</time>
</trkpt>
<trkpt lat="22.2449103" lon="114.2215073">
<ele>0.000</ele>
<time>2017-11-12T04:17:03.023Z</time>
</trkpt>
<trkpt lat="22.2449103" lon="114.2215073">
<ele>0.000</ele>
<time>2017-11-12T04:17:03.123Z</time>
</trkpt>
<trkpt lat="22.2449564" lon="114.2216059">
<ele>0.000</ele>
<time>2017-11-12T04:17:29.537Z</time>
</trkpt>
<trkpt lat="22.2450054" lon="114.2216901">
<ele>0.000</ele>
<time>2017-11-12T04:17:36.771Z</time>
</trkpt>
<trkpt lat="22.2450852" lon="114.2217394">
<ele>0.082</ele>
<time>2017-11-12T04:17:42.476Z</time>
</trkpt>
<trkpt lat="22.2451890" lon="114.2217779">
<ele>0.000</ele>
<time>2017-11-12T04:17:49.236Z</time>
</trkpt>
<trkpt lat="22.2452661" lon="114.2218286">
<ele>0.358</ele>
<time>2017-11-12T04:17:55.746Z</time>
</trkpt>
<trkpt lat="22.2453587" lon="114.2218781">
<ele>1.572</ele>
<time>2017-11-12T04:18:03.429Z</time>
</trkpt>
<trkpt lat="22.2454527" lon="114.2219100">
<ele>2.874</ele>
<time>2017-11-12T04:18:11.273Z</time>
</trkpt>
<trkpt lat="22.2455284" lon="114.2219768">
<ele>3.667</ele>
<time>2017-11-12T04:18:19.589Z</time>
</trkpt>
<trkpt lat="22.2456255" lon="114.2219839">
<ele>3.967</ele>
<time>2017-11-12T04:18:27.775Z</time>
</trkpt>
<trkpt lat="22.2457209" lon="114.2220107">
<ele>3.998</ele>
<time>2017-11-12T04:18:35.021Z</time>
</trkpt>
<trkpt lat="22.2458164" lon="114.2220420">
<ele>3.963</ele>
<time>2017-11-12T04:18:41.710Z</time>
</trkpt>
<trkpt lat="22.2459110" lon="114.2220595">
<ele>4.040</ele>
<time>2017-11-12T04:18:48.136Z</time>
</trkpt>
<trkpt lat="22.2460115" lon="114.2220635">
<ele>4.395</ele>
<time>2017-11-12T04:18:55.617Z</time>
</trkpt>
<trkpt lat="22.2460641" lon="114.2221494">
<ele>4.922</ele>
<time>2017-11-12T04:19:04.020Z</time>
</trkpt>
<trkpt lat="22.2460641" lon="114.2221494">
<ele>5.281</ele>
<time>2017-11-12T04:19:05.020Z</time>
</trkpt>
<trkpt lat="22.2460641" lon="114.2221494">
<ele>5.333</ele>
<time>2017-11-12T04:19:21.875Z</time>
</trkpt>
<trkpt lat="22.2461563" lon="114.2221157">
<ele>5.206</ele>
<time>2017-11-12T04:19:33.020Z</time>
</trkpt>
<trkpt lat="22.2461563" lon="114.2221157">
<ele>5.083</ele>
<time>2017-11-12T04:19:36.026Z</time>
</trkpt>
<trkpt lat="22.2461563" lon="114.2221157">
<ele>5.054</ele>
<time>2017-11-12T04:19:38.829Z</time>
</trkpt>
<trkpt lat="22.2461563" lon="114.2221157">
<ele>5.082</ele>
<time>2017-11-12T04:19:52.026Z</time>
</trkpt>
<trkpt lat="22.2461563" lon="114.2221157">
<ele>5.081</ele>
<time>2017-11-12T04:19:52.126Z</time>
</trkpt>
<trkpt lat="22.2462497" lon="114.2221904">
<ele>5.079</ele>
<time>2017-11-12T04:20:16.050Z</time>
</trkpt>
<trkpt lat="22.2462860" lon="114.2222854">
<ele>5.332</ele>
<time>2017-11-12T04:20:24.524Z</time>
</trkpt>
<trkpt lat="22.2463257" lon="114.2223864">
<ele>5.996</ele>
<time>2017-11-12T04:20:33.740Z</time>
</trkpt>
<trkpt lat="22.2463370" lon="114.2224884">
<ele>6.653</ele>
<time>2017-11-12T04:20:43.681Z</time>
</trkpt>
<trkpt lat="22.2462950" lon="114.2225745">
<ele>6.909</ele>
<time>2017-11-12T04:20:51.745Z</time>
</trkpt>
<trkpt lat="22.2462443" lon="114.2226655">
<ele>6.888</ele>
<time>2017-11-12T04:20:58.024Z</time>
</trkpt>
<trkpt lat="22.2462443" lon="114.2226655">
<ele>6.812</ele>
<time>2017-11-12T04:20:59.024Z</time>
</trkpt>
<trkpt lat="22.2462443" lon="114.2226655">
<ele>6.780</ele>
<time>2017-11-12T04:21:00.711Z</time>
</trkpt>
<trkpt lat="22.2462335" lon="114.2227657">
<ele>6.785</ele>
<time>2017-11-12T04:21:10.809Z</time>
</trkpt>
<trkpt lat="22.2462913" lon="114.2228442">
<ele>6.590</ele>
<time>2017-11-12T04:21:16.756Z</time>
</trkpt>
<trkpt lat="22.2463475" lon="114.2229207">
<ele>6.056</ele>
<time>2017-11-12T04:21:22.023Z</time>
</trkpt>
<trkpt lat="22.2463475" lon="114.2229207">
<ele>5.592</ele>
<time>2017-11-12T04:21:28.023Z</time>
</trkpt>
<trkpt lat="22.2463475" lon="114.2229207">
<ele>5.558</ele>
<time>2017-11-12T04:21:32.488Z</time>
</trkpt>
<trkpt lat="22.2463475" lon="114.2229207">
<ele>5.731</ele>
<time>2017-11-12T04:21:39.023Z</time>
</trkpt>
<trkpt lat="22.2463475" lon="114.2229207">
<ele>5.677</ele>
<time>2017-11-12T04:21:39.123Z</time>
</trkpt>
<trkpt lat="22.2463475" lon="114.2229207">
<ele>5.686</ele>
<time>2017-11-12T04:21:42.023Z</time>
</trkpt>
<trkpt lat="22.2463475" lon="114.2229207">
<ele>5.708</ele>
<time>2017-11-12T04:21:42.123Z</time>
</trkpt>
<trkpt lat="22.2463475" lon="114.2229207">
<ele>5.691</ele>
<time>2017-11-12T04:21:54.023Z</time>
</trkpt>
<trkpt lat="22.2463475" lon="114.2229207">
<ele>5.681</ele>
<time>2017-11-12T04:21:54.123Z</time>
</trkpt>
<trkpt lat="22.2462582" lon="114.2230363">
<ele>5.680</ele>
<time>2017-11-12T04:22:15.164Z</time>
</trkpt>
<trkpt lat="22.2461800" lon="114.2230852">
<ele>5.565</ele>
<time>2017-11-12T04:22:25.817Z</time>
</trkpt>
<trkpt lat="22.2460943" lon="114.2231222">
<ele>4.973</ele>
<time>2017-11-12T04:22:38.021Z</time>
</trkpt>
<trkpt lat="22.2460943" lon="114.2231222">
<ele>3.904</ele>
<time>2017-11-12T04:22:46.021Z</time>
</trkpt>
<trkpt lat="22.2460943" lon="114.2231222">
<ele>3.138</ele>
<time>2017-11-12T04:22:46.121Z</time>
</trkpt>
<trkpt lat="22.2460635" lon="114.2232211">
<ele>3.564</ele>
<time>2017-11-12T04:22:53.021Z</time>
</trkpt>
<trkpt lat="22.2460635" lon="114.2232211">
<ele>3.810</ele>
<time>2017-11-12T04:22:57.021Z</time>
</trkpt>
<trkpt lat="22.2460635" lon="114.2232211">
<ele>3.794</ele>
<time>2017-11-12T04:22:59.136Z</time>
</trkpt>
<trkpt lat="22.2460635" lon="114.2232211">
<ele>3.694</ele>
<time>2017-11-12T04:23:10.021Z</time>
</trkpt>
<trkpt lat="22.2460635" lon="114.2232211">
<ele>3.737</ele>
<time>2017-11-12T04:23:10.121Z</time>
</trkpt>
<trkpt lat="22.2460635" lon="114.2232211">
<ele>3.716</ele>
<time>2017-11-12T04:23:12.021Z</time>
</trkpt>
<trkpt lat="22.2460635" lon="114.2232211">
<ele>3.698</ele>
<time>2017-11-12T04:23:20.545Z</time>
</trkpt>
<trkpt lat="22.2458590" lon="114.2232154">
<ele>3.697</ele>
<time>2017-11-12T04:23:44.553Z</time>
</trkpt>
<trkpt lat="22.2459114" lon="114.2232993">
<ele>3.380</ele>
<time>2017-11-12T04:23:50.020Z</time>
</trkpt>
<trkpt lat="22.2459114" lon="114.2232993">
<ele>2.541</ele>
<time>2017-11-12T04:23:59.019Z</time>
</trkpt>
<trkpt lat="22.2459114" lon="114.2232993">
<ele>1.838</ele>
<time>2017-11-12T04:23:59.119Z</time>
</trkpt>
<trkpt lat="22.2459461" lon="114.2234628">
<ele>1.848</ele>
<time>2017-11-12T04:24:15.949Z</time>
</trkpt>
<trkpt lat="22.2459081" lon="114.2235534">
<ele>1.864</ele>
<time>2017-11-12T04:24:22.019Z</time>
</trkpt>
<trkpt lat="22.2459081" lon="114.2235534">
<ele>1.216</ele>
<time>2017-11-12T04:24:24.019Z</time>
</trkpt>
<trkpt lat="22.2459081" lon="114.2235534">
<ele>0.541</ele>
<time>2017-11-12T04:25:05.991Z</time>
</trkpt>
<trkpt lat="22.2458879" lon="114.2234577">
<ele>0.536</ele>
<time>2017-11-12T04:25:20.498Z</time>
</trkpt>
<trkpt lat="22.2458666" lon="114.2233568">
<ele>0.567</ele>
<time>2017-11-12T04:25:30.358Z</time>
</trkpt>
<trkpt lat="22.2458613" lon="114.2232543">
<ele>0.000</ele>
<time>2017-11-12T04:25:39.037Z</time>
</trkpt>
<trkpt lat="22.2458025" lon="114.2231796">
<ele>0.000</ele>
<time>2017-11-12T04:25:46.788Z</time>
</trkpt>
<trkpt lat="22.2457179" lon="114.2231330">
<ele>0.000</ele>
<time>2017-11-12T04:25:54.428Z</time>
</trkpt>
<trkpt lat="22.2456538" lon="114.2230550">
<ele>0.000</ele>
<time>2017-11-12T04:26:01.866Z</time>
</trkpt>
<trkpt lat="22.2456009" lon="114.2229733">
<ele>0.000</ele>
<time>2017-11-12T04:26:09.103Z</time>
</trkpt>
<trkpt lat="22.2455603" lon="114.2228774">
<ele>0.000</ele>
<time>2017-11-12T04:26:17.092Z</time>
</trkpt>
<trkpt lat="22.2455046" lon="114.2227976">
<ele>0.000</ele>
<time>2017-11-12T04:26:25.016Z</time>
</trkpt>
<trkpt lat="22.2455046" lon="114.2227976">
<ele>0.000</ele>
<time>2017-11-12T04:26:33.016Z</time>
</trkpt>
<trkpt lat="22.2455046" lon="114.2227976">
<ele>0.000</ele>
<time>2017-11-12T04:26:57.591Z</time>
</trkpt>
<trkpt lat="22.2453938" lon="114.2227825">
<ele>0.000</ele>
<time>2017-11-12T04:27:08.021Z</time>
</trkpt>
<trkpt lat="22.2453938" lon="114.2227825">
<ele>0.017</ele>
<time>2017-11-12T04:27:17.021Z</time>
</trkpt>
<trkpt lat="22.2453938" lon="114.2227825">
<ele>0.022</ele>
<time>2017-11-12T04:29:35.928Z</time>
</trkpt>
<trkpt lat="22.2454157" lon="114.2225762">
<ele>0.014</ele>
<time>2017-11-12T04:29:58.017Z</time>
</trkpt>
<trkpt lat="22.2454157" lon="114.2225762">
<ele>0.011</ele>
<time>2017-11-12T04:30:15.016Z</time>
</trkpt>
<trkpt lat="22.2454157" lon="114.2225762">
<ele>0.013</ele>
<time>2017-11-12T04:30:26.161Z</time>
</trkpt>
<trkpt lat="22.2453758" lon="114.2227742">
<ele>0.015</ele>
<time>2017-11-12T04:31:23.015Z</time>
</trkpt>
<trkpt lat="22.2453758" lon="114.2227742">
<ele>0.015</ele>
<time>2017-11-12T04:31:27.015Z</time>
</trkpt>
<trkpt lat="22.2453758" lon="114.2227742">
<ele>0.014</ele>
<time>2017-11-12T04:31:30.775Z</time>
</trkpt>
<trkpt lat="22.2454427" lon="114.2228506">
<ele>0.015</ele>
<time>2017-11-12T04:31:43.014Z</time>
</trkpt>
<trkpt lat="22.2454427" lon="114.2228506">
<ele>0.015</ele>
<time>2017-11-12T04:31:51.014Z</time>
</trkpt>
<trkpt lat="22.2454427" lon="114.2228506">
<ele>0.015</ele>
<time>2017-11-12T04:31:51.114Z</time>
</trkpt>
<trkpt lat="22.2453477" lon="114.2228703">
<ele>0.015</ele>
<time>2017-11-12T04:32:34.013Z</time>
</trkpt>
<trkpt lat="22.2453477" lon="114.2228703">
<ele>0.015</ele>
<time>2017-11-12T04:32:36.013Z</time>
</trkpt>
<trkpt lat="22.2453477" lon="114.2228703">
<ele>0.015</ele>
<time>2017-11-12T04:33:13.385Z</time>
</trkpt>
<trkpt lat="22.2454720" lon="114.2228492">
<ele>0.015</ele>
<time>2017-11-12T04:33:34.848Z</time>
</trkpt>
<trkpt lat="22.2455522" lon="114.2229094">
<ele>0.084</ele>
<time>2017-11-12T04:33:46.122Z</time>
</trkpt>
<trkpt lat="22.2456081" lon="114.2229978">
<ele>0.274</ele>
<time>2017-11-12T04:33:55.906Z</time>
</trkpt>
<trkpt lat="22.2456447" lon="114.2230902">
<ele>0.484</ele>
<time>2017-11-12T04:34:04.413Z</time>
</trkpt>
<trkpt lat="22.2456984" lon="114.2231789">
<ele>0.563</ele>
<time>2017-11-12T04:34:13.981Z</time>
</trkpt>
<trkpt lat="22.2457815" lon="114.2232211">
<ele>0.383</ele>
<time>2017-11-12T04:34:24.016Z</time>
</trkpt>
<trkpt lat="22.2458638" lon="114.2232759">
<ele>0.000</ele>
<time>2017-11-12T04:34:34.590Z</time>
</trkpt>
<trkpt lat="22.2459276" lon="114.2233448">
<ele>0.000</ele>
<time>2017-11-12T04:34:43.016Z</time>
</trkpt>
<trkpt lat="22.2459276" lon="114.2233448">
<ele>0.000</ele>
<time>2017-11-12T04:34:50.016Z</time>
</trkpt>
<trkpt lat="22.2459276" lon="114.2233448">
<ele>0.000</ele>
<time>2017-11-12T04:34:50.229Z</time>
</trkpt>
<trkpt lat="22.2460085" lon="114.2234024">
<ele>0.000</ele>
<time>2017-11-12T04:35:06.508Z</time>
</trkpt>
<trkpt lat="22.2460914" lon="114.2234559">
<ele>0.000</ele>
<time>2017-11-12T04:35:16.831Z</time>
</trkpt>
<trkpt lat="22.2461832" lon="114.2234423">
<ele>0.000</ele>
<time>2017-11-12T04:35:27.213Z</time>
</trkpt>
<trkpt lat="22.2462619" lon="114.2234962">
<ele>0.000</ele>
<time>2017-11-12T04:35:38.318Z</time>
</trkpt>
<trkpt lat="22.2463337" lon="114.2235566">
<ele>0.000</ele>
<time>2017-11-12T04:35:49.015Z</time>
</trkpt>
<trkpt lat="22.2463337" lon="114.2235566">
<ele>0.000</ele>
<time>2017-11-12T04:35:52.015Z</time>
</trkpt>
<trkpt lat="22.2463337" lon="114.2235566">
<ele>0.000</ele>
<time>2017-11-12T04:36:11.318Z</time>
</trkpt>
<trkpt lat="22.2463735" lon="114.2236544">
<ele>0.000</ele>
<time>2017-11-12T04:36:34.645Z</time>
</trkpt>
<trkpt lat="22.2464218" lon="114.2237371">
<ele>0.072</ele>
<time>2017-11-12T04:36:44.411Z</time>
</trkpt>
<trkpt lat="22.2465110" lon="114.2237819">
<ele>0.018</ele>
<time>2017-11-12T04:36:53.850Z</time>
</trkpt>
<trkpt lat="22.2466014" lon="114.2237707">
<ele>0.000</ele>
<time>2017-11-12T04:37:01.345Z</time>
</trkpt>
<trkpt lat="22.2466953" lon="114.2237967">
<ele>0.000</ele>
<time>2017-11-12T04:37:09.529Z</time>
</trkpt>
<trkpt lat="22.2467688" lon="114.2238572">
<ele>0.066</ele>
<time>2017-11-12T04:37:17.793Z</time>
</trkpt>
<trkpt lat="22.2468415" lon="114.2239302">
<ele>0.451</ele>
<time>2017-11-12T04:37:26.756Z</time>
</trkpt>
<trkpt lat="22.2468762" lon="114.2240199">
<ele>0.739</ele>
<time>2017-11-12T04:37:34.281Z</time>
</trkpt>
<trkpt lat="22.2469414" lon="114.2240920">
<ele>0.860</ele>
<time>2017-11-12T04:37:42.012Z</time>
</trkpt>
<trkpt lat="22.2469414" lon="114.2240920">
<ele>0.880</ele>
<time>2017-11-12T04:37:52.011Z</time>
</trkpt>
<trkpt lat="22.2469414" lon="114.2240920">
<ele>0.873</ele>
<time>2017-11-12T04:37:52.111Z</time>
</trkpt>
<trkpt lat="22.2470840" lon="114.2241589">
<ele>0.871</ele>
<time>2017-11-12T04:38:04.701Z</time>
</trkpt>
<trkpt lat="22.2471736" lon="114.2241485">
<ele>0.921</ele>
<time>2017-11-12T04:38:10.011Z</time>
</trkpt>
<trkpt lat="22.2471736" lon="114.2241485">
<ele>1.044</ele>
<time>2017-11-12T04:38:14.011Z</time>
</trkpt>
<trkpt lat="22.2471736" lon="114.2241485">
<ele>1.145</ele>
<time>2017-11-12T04:38:33.193Z</time>
</trkpt>
<trkpt lat="22.2471736" lon="114.2241485">
<ele>1.089</ele>
<time>2017-11-12T04:39:06.010Z</time>
</trkpt>
<trkpt lat="22.2471736" lon="114.2241485">
<ele>1.055</ele>
<time>2017-11-12T04:39:06.110Z</time>
</trkpt>
<trkpt lat="22.2472563" lon="114.2241923">
<ele>1.064</ele>
<time>2017-11-12T04:39:22.586Z</time>
</trkpt>
<trkpt lat="22.2473119" lon="114.2242707">
<ele>1.246</ele>
<time>2017-11-12T04:39:32.009Z</time>
</trkpt>
<trkpt lat="22.2473119" lon="114.2242707">
<ele>1.656</ele>
<time>2017-11-12T04:39:44.009Z</time>
</trkpt>
<trkpt lat="22.2473119" lon="114.2242707">
<ele>1.984</ele>
<time>2017-11-12T04:39:47.619Z</time>
</trkpt>
<trkpt lat="22.2473971" lon="114.2241981">
<ele>1.976</ele>
<time>2017-11-12T04:40:02.008Z</time>
</trkpt>
<trkpt lat="22.2473971" lon="114.2241981">
<ele>1.846</ele>
<time>2017-11-12T04:40:03.008Z</time>
</trkpt>
<trkpt lat="22.2473971" lon="114.2241981">
<ele>1.833</ele>
<time>2017-11-12T04:41:04.102Z</time>
</trkpt>
<trkpt lat="22.2474911" lon="114.2242429">
<ele>1.904</ele>
<time>2017-11-12T04:41:19.164Z</time>
</trkpt>
<trkpt lat="22.2474539" lon="114.2241458">
<ele>2.113</ele>
<time>2017-11-12T04:41:30.107Z</time>
</trkpt>
<trkpt lat="22.2473746" lon="114.2240873">
<ele>3.035</ele>
<time>2017-11-12T04:41:41.582Z</time>
</trkpt>
<trkpt lat="22.2472932" lon="114.2240314">
<ele>5.149</ele>
<time>2017-11-12T04:41:52.752Z</time>
</trkpt>
<trkpt lat="22.2472396" lon="114.2239492">
<ele>8.070</ele>
<time>2017-11-12T04:42:04.054Z</time>
</trkpt>
<trkpt lat="22.2471524" lon="114.2239132">
<ele>10.987</ele>
<time>2017-11-12T04:42:14.043Z</time>
</trkpt>
<trkpt lat="22.2470562" lon="114.2238856">
<ele>13.196</ele>
<time>2017-11-12T04:42:23.044Z</time>
</trkpt>
<trkpt lat="22.2469999" lon="114.2238004">
<ele>14.265</ele>
<time>2017-11-12T04:42:30.459Z</time>
</trkpt>
<trkpt lat="22.2469493" lon="114.2237152">
<ele>13.471</ele>
<time>2017-11-12T04:42:37.011Z</time>
</trkpt>
<trkpt lat="22.2469493" lon="114.2237152">
<ele>10.841</ele>
<time>2017-11-12T04:42:42.011Z</time>
</trkpt>
<trkpt lat="22.2469493" lon="114.2237152">
<ele>8.668</ele>
<time>2017-11-12T04:43:16.569Z</time>
</trkpt>
<trkpt lat="22.2470065" lon="114.2236106">
<ele>9.846</ele>
<time>2017-11-12T04:43:49.806Z</time>
</trkpt>
<trkpt lat="22.2470470" lon="114.2235216">
<ele>11.157</ele>
<time>2017-11-12T04:44:01.867Z</time>
</trkpt>
<trkpt lat="22.2470008" lon="114.2234307">
<ele>12.931</ele>
<time>2017-11-12T04:44:13.698Z</time>
</trkpt>
<trkpt lat="22.2469422" lon="114.2233450">
<ele>15.503</ele>
<time>2017-11-12T04:44:25.397Z</time>
</trkpt>
<trkpt lat="22.2469223" lon="114.2232405">
<ele>18.624</ele>
<time>2017-11-12T04:44:36.459Z</time>
</trkpt>
<trkpt lat="22.2468899" lon="114.2231448">
<ele>21.652</ele>
<time>2017-11-12T04:44:45.624Z</time>
</trkpt>
<trkpt lat="22.2468943" lon="114.2230444">
<ele>24.330</ele>
<time>2017-11-12T04:44:55.462Z</time>
</trkpt>
<trkpt lat="22.2469689" lon="114.2229771">
<ele>26.707</ele>
<time>2017-11-12T04:45:06.224Z</time>
</trkpt>
<trkpt lat="22.2470568" lon="114.2229423">
<ele>28.900</ele>
<time>2017-11-12T04:45:19.007Z</time>
</trkpt>
<trkpt lat="22.2470568" lon="114.2229423">
<ele>31.005</ele>
<time>2017-11-12T04:45:24.007Z</time>
</trkpt>
<trkpt lat="22.2470568" lon="114.2229423">
<ele>32.266</ele>
<time>2017-11-12T04:45:24.107Z</time>
</trkpt>
<trkpt lat="22.2470568" lon="114.2229423">
<ele>31.505</ele>
<time>2017-11-12T04:45:34.006Z</time>
</trkpt>
<trkpt lat="22.2470568" lon="114.2229423">
<ele>31.098</ele>
<time>2017-11-12T04:45:34.106Z</time>
</trkpt>
<trkpt lat="22.2470568" lon="114.2229423">
<ele>31.305</ele>
<time>2017-11-12T04:45:37.006Z</time>
</trkpt>
<trkpt lat="22.2470568" lon="114.2229423">
<ele>31.420</ele>
<time>2017-11-12T04:45:37.106Z</time>
</trkpt>
<trkpt lat="22.2471325" lon="114.2228709">
<ele>31.400</ele>
<time>2017-11-12T04:45:52.416Z</time>
</trkpt>
<trkpt lat="22.2472128" lon="114.2228158">
<ele>31.964</ele>
<time>2017-11-12T04:46:00.312Z</time>
</trkpt>
<trkpt lat="22.2473026" lon="114.2228341">
<ele>34.102</ele>
<time>2017-11-12T04:46:07.006Z</time>
</trkpt>
<trkpt lat="22.2473026" lon="114.2228341">
<ele>37.161</ele>
<time>2017-11-12T04:46:12.006Z</time>
</trkpt>
<trkpt lat="22.2473026" lon="114.2228341">
<ele>39.021</ele>
<time>2017-11-12T04:46:52.301Z</time>
</trkpt>
<trkpt lat="22.2473572" lon="114.2229319">
<ele>37.909</ele>
<time>2017-11-12T04:47:08.711Z</time>
</trkpt>
<trkpt lat="22.2473972" lon="114.2230276">
<ele>37.960</ele>
<time>2017-11-12T04:47:19.558Z</time>
</trkpt>
<trkpt lat="22.2474241" lon="114.2231392">
<ele>39.672</ele>
<time>2017-11-12T04:47:29.668Z</time>
</trkpt>
<trkpt lat="22.2474448" lon="114.2232434">
<ele>41.735</ele>
<time>2017-11-12T04:47:36.554Z</time>
</trkpt>
<trkpt lat="22.2474697" lon="114.2233396">
<ele>42.824</ele>
<time>2017-11-12T04:47:41.279Z</time>
</trkpt>
<trkpt lat="22.2475018" lon="114.2234341">
<ele>42.957</ele>
<time>2017-11-12T04:47:46.003Z</time>
</trkpt>
<trkpt lat="22.2475194" lon="114.2235446">
<ele>42.605</ele>
<time>2017-11-12T04:47:51.856Z</time>
</trkpt>
<trkpt lat="22.2476025" lon="114.2236184">
<ele>42.313</ele>
<time>2017-11-12T04:47:58.526Z</time>
</trkpt>
<trkpt lat="22.2476849" lon="114.2236659">
<ele>42.338</ele>
<time>2017-11-12T04:48:03.800Z</time>
</trkpt>
<trkpt lat="22.2477765" lon="114.2237171">
<ele>42.552</ele>
<time>2017-11-12T04:48:09.390Z</time>
</trkpt>
<trkpt lat="22.2478655" lon="114.2237368">
<ele>41.578</ele>
<time>2017-11-12T04:48:14.513Z</time>
</trkpt>
<trkpt lat="22.2479594" lon="114.2237052">
<ele>38.645</ele>
<time>2017-11-12T04:48:20.539Z</time>
</trkpt>
<trkpt lat="22.2480489" lon="114.2236863">
<ele>36.638</ele>
<time>2017-11-12T04:48:26.754Z</time>
</trkpt>
<trkpt lat="22.2481395" lon="114.2236526">
<ele>37.986</ele>
<time>2017-11-12T04:48:33.611Z</time>
</trkpt>
<trkpt lat="22.2482188" lon="114.2236021">
<ele>40.705</ele>
<time>2017-11-12T04:48:40.283Z</time>
</trkpt>
<trkpt lat="22.2483015" lon="114.2235423">
<ele>42.396</ele>
<time>2017-11-12T04:48:48.008Z</time>
</trkpt>
<trkpt lat="22.2483015" lon="114.2235423">
<ele>42.885</ele>
<time>2017-11-12T04:48:51.008Z</time>
</trkpt>
<trkpt lat="22.2483015" lon="114.2235423">
<ele>42.782</ele>
<time>2017-11-12T04:48:53.785Z</time>
</trkpt>
<trkpt lat="22.2484015" lon="114.2235293">
<ele>42.665</ele>
<time>2017-11-12T04:49:11.627Z</time>
</trkpt>
<trkpt lat="22.2484811" lon="114.2235891">
<ele>42.741</ele>
<time>2017-11-12T04:49:21.399Z</time>
</trkpt>
<trkpt lat="22.2485443" lon="114.2236742">
<ele>42.752</ele>
<time>2017-11-12T04:49:28.843Z</time>
</trkpt>
<trkpt lat="22.2486087" lon="114.2237484">
<ele>42.765</ele>
<time>2017-11-12T04:49:35.044Z</time>
</trkpt>
<trkpt lat="22.2486790" lon="114.2238177">
<ele>42.881</ele>
<time>2017-11-12T04:49:41.283Z</time>
</trkpt>
<trkpt lat="22.2487183" lon="114.2239102">
<ele>43.029</ele>
<time>2017-11-12T04:49:47.335Z</time>
</trkpt>
<trkpt lat="22.2487819" lon="114.2239852">
<ele>43.100</ele>
<time>2017-11-12T04:49:54.488Z</time>
</trkpt>
<trkpt lat="22.2488508" lon="114.2240510">
<ele>43.064</ele>
<time>2017-11-12T04:50:02.424Z</time>
</trkpt>
<trkpt lat="22.2489434" lon="114.2240772">
<ele>42.952</ele>
<time>2017-11-12T04:50:11.280Z</time>
</trkpt>
<trkpt lat="22.2490366" lon="114.2240593">
<ele>42.843</ele>
<time>2017-11-12T04:50:19.390Z</time>
</trkpt>
<trkpt lat="22.2491326" lon="114.2241009">
<ele>42.794</ele>
<time>2017-11-12T04:50:26.393Z</time>
</trkpt>
<trkpt lat="22.2492129" lon="114.2241715">
<ele>42.850</ele>
<time>2017-11-12T04:50:32.433Z</time>
</trkpt>
<trkpt lat="22.2492597" lon="114.2242614">
<ele>43.017</ele>
<time>2017-11-12T04:50:39.756Z</time>
</trkpt>
<trkpt lat="22.2492792" lon="114.2243616">
<ele>43.170</ele>
<time>2017-11-12T04:50:47.630Z</time>
</trkpt>
<trkpt lat="22.2493171" lon="114.2244535">
<ele>43.216</ele>
<time>2017-11-12T04:50:56.650Z</time>
</trkpt>
<trkpt lat="22.2493787" lon="114.2245299">
<ele>43.233</ele>
<time>2017-11-12T04:51:03.370Z</time>
</trkpt>
<trkpt lat="22.2494107" lon="114.2246264">
<ele>43.302</ele>
<time>2017-11-12T04:51:08.986Z</time>
</trkpt>
<trkpt lat="22.2494871" lon="114.2246886">
<ele>43.376</ele>
<time>2017-11-12T04:51:14.615Z</time>
</trkpt>
<trkpt lat="22.2495575" lon="114.2247527">
<ele>43.383</ele>
<time>2017-11-12T04:51:20.339Z</time>
</trkpt>
<trkpt lat="22.2496516" lon="114.2248069">
<ele>43.350</ele>
<time>2017-11-12T04:51:27.208Z</time>
</trkpt>
<trkpt lat="22.2497503" lon="114.2248184">
<ele>43.407</ele>
<time>2017-11-12T04:51:33.754Z</time>
</trkpt>
<trkpt lat="22.2498359" lon="114.2248577">
<ele>43.610</ele>
<time>2017-11-12T04:51:40.629Z</time>
</trkpt>
<trkpt lat="22.2497896" lon="114.2249475">
<ele>43.802</ele>
<time>2017-11-12T04:51:48.974Z</time>
</trkpt>
<trkpt lat="22.2497172" lon="114.2250247">
<ele>43.851</ele>
<time>2017-11-12T04:51:57.247Z</time>
</trkpt>
<trkpt lat="22.2496567" lon="114.2251106">
<ele>43.812</ele>
<time>2017-11-12T04:52:04.628Z</time>
</trkpt>
<trkpt lat="22.2496162" lon="114.2252057">
<ele>43.743</ele>
<time>2017-11-12T04:52:12.278Z</time>
</trkpt>
<trkpt lat="22.2495820" lon="114.2253032">
<ele>43.654</ele>
<time>2017-11-12T04:52:20.856Z</time>
</trkpt>
<trkpt lat="22.2495304" lon="114.2253848">
<ele>43.608</ele>
<time>2017-11-12T04:52:29.041Z</time>
</trkpt>
<trkpt lat="22.2495649" lon="114.2254860">
<ele>43.648</ele>
<time>2017-11-12T04:52:36.968Z</time>
</trkpt>
<trkpt lat="22.2496515" lon="114.2255474">
<ele>43.733</ele>
<time>2017-11-12T04:52:44.502Z</time>
</trkpt>
<trkpt lat="22.2497394" lon="114.2255783">
<ele>43.837</ele>
<time>2017-11-12T04:52:51.983Z</time>
</trkpt>
<trkpt lat="22.2498226" lon="114.2256168">
<ele>43.948</ele>
<time>2017-11-12T04:53:01.058Z</time>
</trkpt>
<trkpt lat="22.2499032" lon="114.2256626">
<ele>44.023</ele>
<time>2017-11-12T04:53:11.267Z</time>
</trkpt>
<trkpt lat="22.2499866" lon="114.2257186">
<ele>44.025</ele>
<time>2017-11-12T04:53:19.079Z</time>
</trkpt>
<trkpt lat="22.2500822" lon="114.2257627">
<ele>43.975</ele>
<time>2017-11-12T04:53:24.941Z</time>
</trkpt>
<trkpt lat="22.2501398" lon="114.2258404">
<ele>43.922</ele>
<time>2017-11-12T04:53:30.032Z</time>
</trkpt>
<trkpt lat="22.2502156" lon="114.2259012">
<ele>43.924</ele>
<time>2017-11-12T04:53:36.001Z</time>
</trkpt>
<trkpt lat="22.2502156" lon="114.2259012">
<ele>43.987</ele>
<time>2017-11-12T04:53:42.001Z</time>
</trkpt>
<trkpt lat="22.2502156" lon="114.2259012">
<ele>44.037</ele>
<time>2017-11-12T04:53:42.101Z</time>
</trkpt>
<trkpt lat="22.2503192" lon="114.2259950">
<ele>44.010</ele>
<time>2017-11-12T04:53:58.057Z</time>
</trkpt>
<trkpt lat="22.2504156" lon="114.2260114">
<ele>43.947</ele>
<time>2017-11-12T04:54:08.625Z</time>
</trkpt>
<trkpt lat="22.2504991" lon="114.2260758">
<ele>43.923</ele>
<time>2017-11-12T04:54:17.886Z</time>
</trkpt>
<trkpt lat="22.2505949" lon="114.2260954">
<ele>43.958</ele>
<time>2017-11-12T04:54:24.479Z</time>
</trkpt>
<trkpt lat="22.2506816" lon="114.2261297">
<ele>44.023</ele>
<time>2017-11-12T04:54:30.064Z</time>
</trkpt>
<trkpt lat="22.2507779" lon="114.2261840">
<ele>44.075</ele>
<time>2017-11-12T04:54:36.461Z</time>
</trkpt>
<trkpt lat="22.2508585" lon="114.2262303">
<ele>44.082</ele>
<time>2017-11-12T04:54:41.939Z</time>
</trkpt>
<trkpt lat="22.2509460" lon="114.2262685">
<ele>44.010</ele>
<time>2017-11-12T04:54:47.831Z</time>
</trkpt>
<trkpt lat="22.2510352" lon="114.2262919">
<ele>43.872</ele>
<time>2017-11-12T04:54:54.232Z</time>
</trkpt>
<trkpt lat="22.2511052" lon="114.2263676">
<ele>43.795</ele>
<time>2017-11-12T04:55:01.568Z</time>
</trkpt>
<trkpt lat="22.2511773" lon="114.2264316">
<ele>43.901</ele>
<time>2017-11-12T04:55:07.822Z</time>
</trkpt>
<trkpt lat="22.2512326" lon="114.2265275">
<ele>44.160</ele>
<time>2017-11-12T04:55:13.795Z</time>
</trkpt>
<trkpt lat="22.2513308" lon="114.2265927">
<ele>44.419</ele>
<time>2017-11-12T04:55:19.386Z</time>
</trkpt>
<trkpt lat="22.2514151" lon="114.2266431">
<ele>44.569</ele>
<time>2017-11-12T04:55:25.521Z</time>
</trkpt>
<trkpt lat="22.2515042" lon="114.2266258">
<ele>44.614</ele>
<time>2017-11-12T04:55:31.518Z</time>
</trkpt>
<trkpt lat="22.2515681" lon="114.2267083">
<ele>44.675</ele>
<time>2017-11-12T04:55:40.754Z</time>
</trkpt>
<trkpt lat="22.2515720" lon="114.2268099">
<ele>44.832</ele>
<time>2017-11-12T04:55:48.055Z</time>
</trkpt>
<trkpt lat="22.2516215" lon="114.2268990">
<ele>44.965</ele>
<time>2017-11-12T04:55:55.004Z</time>
</trkpt>
<trkpt lat="22.2516215" lon="114.2268990">
<ele>44.958</ele>
<time>2017-11-12T04:55:56.004Z</time>
</trkpt>
<trkpt lat="22.2516215" lon="114.2268990">
<ele>44.894</ele>
<time>2017-11-12T04:55:58.324Z</time>
</trkpt>
<trkpt lat="22.2516369" lon="114.2270034">
<ele>44.883</ele>
<time>2017-11-12T04:56:12.145Z</time>
</trkpt>
<trkpt lat="22.2516483" lon="114.2271034">
<ele>44.894</ele>
<time>2017-11-12T04:56:20.116Z</time>
</trkpt>
<trkpt lat="22.2516732" lon="114.2272149">
<ele>44.881</ele>
<time>2017-11-12T04:56:27.491Z</time>
</trkpt>
<trkpt lat="22.2516904" lon="114.2273104">
<ele>44.850</ele>
<time>2017-11-12T04:56:33.003Z</time>
</trkpt>
<trkpt lat="22.2516904" lon="114.2273104">
<ele>44.821</ele>
<time>2017-11-12T04:56:38.003Z</time>
</trkpt>
<trkpt lat="22.2516904" lon="114.2273104">
<ele>44.799</ele>
<time>2017-11-12T04:56:58.919Z</time>
</trkpt>
<trkpt lat="22.2517478" lon="114.2274513">
<ele>44.785</ele>
<time>2017-11-12T04:58:00.257Z</time>
</trkpt>
<trkpt lat="22.2516785" lon="114.2275205">
<ele>44.780</ele>
<time>2017-11-12T04:58:10.001Z</time>
</trkpt>
<trkpt lat="22.2516785" lon="114.2275205">
<ele>44.771</ele>
<time>2017-11-12T04:58:10.001Z</time>
</trkpt>
<trkpt lat="22.2516785" lon="114.2275205">
<ele>44.751</ele>
<time>2017-11-12T05:01:14.776Z</time>
</trkpt>
<trkpt lat="22.2516785" lon="114.2275205">
<ele>44.718</ele>
<time>2017-11-12T05:01:42.995Z</time>
</trkpt>
<trkpt lat="22.2516785" lon="114.2275205">
<ele>44.710</ele>
<time>2017-11-12T05:01:43.095Z</time>
</trkpt>
<trkpt lat="22.2517779" lon="114.2274450">
<ele>44.697</ele>
<time>2017-11-12T05:03:28.818Z</time>
</trkpt>
<trkpt lat="22.2518638" lon="114.2274826">
<ele>44.700</ele>
<time>2017-11-12T05:03:42.999Z</time>
</trkpt>
<trkpt lat="22.2518638" lon="114.2274826">
<ele>44.739</ele>
<time>2017-11-12T05:03:55.999Z</time>
</trkpt>
<trkpt lat="22.2518638" lon="114.2274826">
<ele>44.768</ele>
<time>2017-11-12T05:03:56.099Z</time>
</trkpt>
<trkpt lat="22.2519687" lon="114.2274725">
<ele>44.749</ele>
<time>2017-11-12T05:04:07.998Z</time>
</trkpt>
<trkpt lat="22.2519687" lon="114.2274725">
<ele>44.712</ele>
<time>2017-11-12T05:04:17.998Z</time>
</trkpt>
<trkpt lat="22.2519687" lon="114.2274725">
<ele>44.693</ele>
<time>2017-11-12T05:04:18.098Z</time>
</trkpt>
<trkpt lat="22.2520422" lon="114.2275999">
<ele>44.690</ele>
<time>2017-11-12T05:04:24.998Z</time>
</trkpt>
<trkpt lat="22.2520422" lon="114.2275999">
<ele>44.688</ele>
<time>2017-11-12T05:04:37.998Z</time>
</trkpt>
<trkpt lat="22.2520422" lon="114.2275999">
<ele>44.675</ele>
<time>2017-11-12T05:04:38.098Z</time>
</trkpt>
<trkpt lat="22.2521444" lon="114.2276123">
<ele>44.655</ele>
<time>2017-11-12T05:04:56.559Z</time>
</trkpt>
<trkpt lat="22.2522109" lon="114.2276873">
<ele>45.007</ele>
<time>2017-11-12T05:05:07.588Z</time>
</trkpt>
<trkpt lat="22.2522974" lon="114.2277509">
<ele>46.038</ele>
<time>2017-11-12T05:05:16.997Z</time>
</trkpt>
<trkpt lat="22.2522974" lon="114.2277509">
<ele>47.230</ele>
<time>2017-11-12T05:05:21.996Z</time>
</trkpt>
<trkpt lat="22.2522974" lon="114.2277509">
<ele>47.817</ele>
<time>2017-11-12T05:05:22.096Z</time>
</trkpt>
<trkpt lat="22.2524556" lon="114.2277805">
<ele>47.739</ele>
<time>2017-11-12T05:05:43.996Z</time>
</trkpt>
<trkpt lat="22.2524556" lon="114.2277805">
<ele>47.486</ele>
<time>2017-11-12T05:05:49.996Z</time>
</trkpt>
<trkpt lat="22.2524556" lon="114.2277805">
<ele>47.444</ele>
<time>2017-11-12T05:05:50.096Z</time>
</trkpt>
<trkpt lat="22.2525675" lon="114.2278739">
<ele>47.521</ele>
<time>2017-11-12T05:06:18.001Z</time>
</trkpt>
<trkpt lat="22.2526259" lon="114.2279485">
<ele>47.528</ele>
<time>2017-11-12T05:06:31.910Z</time>
</trkpt>
<trkpt lat="22.2526937" lon="114.2280186">
<ele>47.959</ele>
<time>2017-11-12T05:06:44.994Z</time>
</trkpt>
<trkpt lat="22.2526937" lon="114.2280186">
<ele>49.171</ele>
<time>2017-11-12T05:06:48.994Z</time>
</trkpt>
<trkpt lat="22.2526937" lon="114.2280186">
<ele>50.193</ele>
<time>2017-11-12T05:06:49.094Z</time>
</trkpt>
<trkpt lat="22.2528400" lon="114.2280114">
<ele>50.157</ele>
<time>2017-11-12T05:07:25.873Z</time>
</trkpt>
<trkpt lat="22.2529066" lon="114.2280838">
<ele>50.486</ele>
<time>2017-11-12T05:07:36.679Z</time>
</trkpt>
<trkpt lat="22.2529710" lon="114.2281601">
<ele>52.802</ele>
<time>2017-11-12T05:07:46.856Z</time>
</trkpt>
<trkpt lat="22.2530556" lon="114.2282020">
<ele>56.331</ele>
<time>2017-11-12T05:07:56.993Z</time>
</trkpt>
<trkpt lat="22.2530556" lon="114.2282020">
<ele>59.181</ele>
<time>2017-11-12T05:08:07.992Z</time>
</trkpt>
<trkpt lat="22.2530556" lon="114.2282020">
<ele>60.408</ele>
<time>2017-11-12T05:08:08.092Z</time>
</trkpt>
<trkpt lat="22.2532169" lon="114.2283137">
<ele>60.225</ele>
<time>2017-11-12T05:08:40.374Z</time>
</trkpt>
<trkpt lat="22.2533136" lon="114.2283224">
<ele>60.433</ele>
<time>2017-11-12T05:08:58.817Z</time>
</trkpt>
<trkpt lat="22.2533597" lon="114.2284105">
<ele>62.517</ele>
<time>2017-11-12T05:09:14.691Z</time>
</trkpt>
<trkpt lat="22.2534323" lon="114.2284802">
<ele>65.822</ele>
<time>2017-11-12T05:09:27.387Z</time>
</trkpt>
<trkpt lat="22.2535347" lon="114.2285060">
<ele>68.838</ele>
<time>2017-11-12T05:09:37.856Z</time>
</trkpt>
<trkpt lat="22.2536308" lon="114.2285303">
<ele>70.972</ele>
<time>2017-11-12T05:09:46.405Z</time>
</trkpt>
<trkpt lat="22.2537199" lon="114.2284991">
<ele>72.260</ele>
<time>2017-11-12T05:09:56.092Z</time>
</trkpt>
<trkpt lat="22.2538138" lon="114.2285101">
<ele>73.064</ele>
<time>2017-11-12T05:10:07.996Z</time>
</trkpt>
<trkpt lat="22.2538138" lon="114.2285101">
<ele>73.656</ele>
<time>2017-11-12T05:10:07.996Z</time>
</trkpt>
<trkpt lat="22.2538138" lon="114.2285101">
<ele>73.983</ele>
<time>2017-11-12T05:10:08.055Z</time>
</trkpt>
<trkpt lat="22.2539009" lon="114.2284720">
<ele>73.722</ele>
<time>2017-11-12T05:10:41.898Z</time>
</trkpt>
<trkpt lat="22.2539974" lon="114.2284818">
<ele>74.158</ele>
<time>2017-11-12T05:10:49.113Z</time>
</trkpt>
<trkpt lat="22.2540883" lon="114.2284539">
<ele>75.785</ele>
<time>2017-11-12T05:10:57.092Z</time>
</trkpt>
<trkpt lat="22.2541792" lon="114.2284438">
<ele>78.005</ele>
<time>2017-11-12T05:11:05.359Z</time>
</trkpt>
<trkpt lat="22.2542703" lon="114.2284417">
<ele>79.980</ele>
<time>2017-11-12T05:11:14.010Z</time>
</trkpt>
<trkpt lat="22.2543392" lon="114.2283761">
<ele>81.541</ele>
<time>2017-11-12T05:11:22.950Z</time>
</trkpt>
<trkpt lat="22.2543875" lon="114.2282886">
<ele>82.874</ele>
<time>2017-11-12T05:11:32.994Z</time>
</trkpt>
<trkpt lat="22.2543875" lon="114.2282886">
<ele>84.071</ele>
<time>2017-11-12T05:11:33.994Z</time>
</trkpt>
<trkpt lat="22.2543875" lon="114.2282886">
<ele>84.727</ele>
<time>2017-11-12T05:11:36.027Z</time>
</trkpt>
<trkpt lat="22.2544524" lon="114.2282137">
<ele>84.261</ele>
<time>2017-11-12T05:11:53.993Z</time>
</trkpt>
<trkpt lat="22.2544524" lon="114.2282137">
<ele>84.026</ele>
<time>2017-11-12T05:12:00.993Z</time>
</trkpt>
<trkpt lat="22.2544524" lon="114.2282137">
<ele>84.006</ele>
<time>2017-11-12T05:12:01.093Z</time>
</trkpt>
<trkpt lat="22.2545902" lon="114.2282574">
<ele>84.085</ele>
<time>2017-11-12T05:12:21.635Z</time>
</trkpt>
<trkpt lat="22.2546702" lon="114.2283068">
<ele>84.636</ele>
<time>2017-11-12T05:12:33.686Z</time>
</trkpt>
<trkpt lat="22.2547628" lon="114.2282958">
<ele>85.952</ele>
<time>2017-11-12T05:12:45.923Z</time>
</trkpt>
<trkpt lat="22.2548527" lon="114.2282921">
<ele>87.427</ele>
<time>2017-11-12T05:12:57.329Z</time>
</trkpt>
<trkpt lat="22.2549426" lon="114.2282832">
<ele>88.656</ele>
<time>2017-11-12T05:13:09.080Z</time>
</trkpt>
<trkpt lat="22.2550074" lon="114.2282117">
<ele>89.959</ele>
<time>2017-11-12T05:13:20.991Z</time>
</trkpt>
<trkpt lat="22.2550074" lon="114.2282117">
<ele>91.226</ele>
<time>2017-11-12T05:13:24.991Z</time>
</trkpt>
<trkpt lat="22.2550074" lon="114.2282117">
<ele>91.888</ele>
<time>2017-11-12T05:14:09.920Z</time>
</trkpt>
<trkpt lat="22.2551043" lon="114.2281964">
<ele>91.793</ele>
<time>2017-11-12T05:14:23.847Z</time>
</trkpt>
<trkpt lat="22.2551952" lon="114.2281805">
<ele>91.912</ele>
<time>2017-11-12T05:14:30.989Z</time>
</trkpt>
<trkpt lat="22.2551952" lon="114.2281805">
<ele>92.962</ele>
<time>2017-11-12T05:14:38.989Z</time>
</trkpt>
<trkpt lat="22.2551952" lon="114.2281805">
<ele>93.957</ele>
<time>2017-11-12T05:14:39.089Z</time>
</trkpt>
<trkpt lat="22.2553232" lon="114.2281697">
<ele>93.917</ele>
<time>2017-11-12T05:15:05.279Z</time>
</trkpt>
<trkpt lat="22.2554205" lon="114.2281860">
<ele>94.088</ele>
<time>2017-11-12T05:15:14.189Z</time>
</trkpt>
<trkpt lat="22.2555151" lon="114.2282249">
<ele>95.869</ele>
<time>2017-11-12T05:15:19.988Z</time>
</trkpt>
<trkpt lat="22.2555151" lon="114.2282249">
<ele>98.382</ele>
<time>2017-11-12T05:15:27.988Z</time>
</trkpt>
<trkpt lat="22.2555151" lon="114.2282249">
<ele>99.765</ele>
<time>2017-11-12T05:15:28.088Z</time>
</trkpt>
<trkpt lat="22.2555151" lon="114.2282249">
<ele>98.856</ele>
<time>2017-11-12T05:15:37.987Z</time>
</trkpt>
<trkpt lat="22.2555151" lon="114.2282249">
<ele>98.392</ele>
<time>2017-11-12T05:15:38.087Z</time>
</trkpt>
<trkpt lat="22.2556104" lon="114.2282617">
<ele>98.486</ele>
<time>2017-11-12T05:15:38.987Z</time>
</trkpt>
<trkpt lat="22.2556104" lon="114.2282617">
<ele>98.844</ele>
<time>2017-11-12T05:15:40.987Z</time>
</trkpt>
<trkpt lat="22.2556104" lon="114.2282617">
<ele>98.995</ele>
<time>2017-11-12T05:15:42.043Z</time>
</trkpt>
<trkpt lat="22.2557041" lon="114.2282584">
<ele>98.782</ele>
<time>2017-11-12T05:16:16.711Z</time>
</trkpt>
<trkpt lat="22.2558046" lon="114.2282631">
<ele>99.480</ele>
<time>2017-11-12T05:16:33.972Z</time>
</trkpt>
<trkpt lat="22.2558943" lon="114.2282735">
<ele>101.761</ele>
<time>2017-11-12T05:16:50.359Z</time>
</trkpt>
<trkpt lat="22.2559832" lon="114.2282435">
<ele>104.804</ele>
<time>2017-11-12T05:17:06.731Z</time>
</trkpt>
<trkpt lat="22.2560753" lon="114.2282261">
<ele>107.264</ele>
<time>2017-11-12T05:17:20.846Z</time>
</trkpt>
<trkpt lat="22.2561441" lon="114.2282959">
<ele>108.806</ele>
<time>2017-11-12T05:17:34.234Z</time>
</trkpt>
<trkpt lat="22.2562384" lon="114.2283145">
<ele>109.691</ele>
<time>2017-11-12T05:17:51.415Z</time>
</trkpt>
<trkpt lat="22.2562063" lon="114.2284069">
<ele>110.349</ele>
<time>2017-11-12T05:18:08.294Z</time>
</trkpt>
<trkpt lat="22.2563006" lon="114.2283843">
<ele>110.976</ele>
<time>2017-11-12T05:18:34.990Z</time>
</trkpt>
<trkpt lat="22.2563006" lon="114.2283843">
<ele>111.444</ele>
<time>2017-11-12T05:18:42.990Z</time>
</trkpt>
<trkpt lat="22.2563006" lon="114.2283843">
<ele>111.616</ele>
<time>2017-11-12T05:19:01.527Z</time>
</trkpt>
<trkpt lat="22.2564077" lon="114.2283297">
<ele>111.543</ele>
<time>2017-11-12T05:19:55.988Z</time>
</trkpt>
<trkpt lat="22.2564077" lon="114.2283297">
<ele>111.414</ele>
<time>2017-11-12T05:20:01.987Z</time>
</trkpt>
<trkpt lat="22.2564077" lon="114.2283297">
<ele>111.364</ele>
<time>2017-11-12T05:20:15.038Z</time>
</trkpt>
<trkpt lat="22.2565999" lon="114.2283540">
<ele>111.377</ele>
<time>2017-11-12T05:20:40.986Z</time>
</trkpt>
<trkpt lat="22.2565999" lon="114.2283540">
<ele>111.383</ele>
<time>2017-11-12T05:20:49.986Z</time>
</trkpt>
<trkpt lat="22.2565999" lon="114.2283540">
<ele>111.346</ele>
<time>2017-11-12T05:21:36.989Z</time>
</trkpt>
<trkpt lat="22.2565999" lon="114.2283540">
<ele>111.256</ele>
<time>2017-11-12T05:22:18.984Z</time>
</trkpt>
<trkpt lat="22.2565999" lon="114.2283540">
<ele>111.232</ele>
<time>2017-11-12T05:23:04.983Z</time>
</trkpt>
<trkpt lat="22.2565999" lon="114.2283540">
<ele>111.197</ele>
<time>2017-11-12T05:23:45.582Z</time>
</trkpt>
<trkpt lat="22.2566576" lon="114.2282399">
<ele>111.155</ele>
<time>2017-11-12T05:24:02.981Z</time>
</trkpt>
<trkpt lat="22.2566576" lon="114.2282399">
<ele>111.125</ele>
<time>2017-11-12T05:24:13.988Z</time>
</trkpt>
<trkpt lat="22.2566576" lon="114.2282399">
<ele>111.098</ele>
<time>2017-11-12T05:24:27.456Z</time>
</trkpt>
<trkpt lat="22.2567465" lon="114.2282209">
<ele>111.019</ele>
<time>2017-11-12T05:25:15.986Z</time>
</trkpt>
<trkpt lat="22.2567465" lon="114.2282209">
<ele>110.996</ele>
<time>2017-11-12T05:25:41.986Z</time>
</trkpt>
<trkpt lat="22.2567465" lon="114.2282209">
<ele>110.976</ele>
<time>2017-11-12T05:25:49.912Z</time>
</trkpt>
<trkpt lat="22.2567785" lon="114.2280976">
<ele>110.940</ele>
<time>2017-11-12T05:26:03.985Z</time>
</trkpt>
<trkpt lat="22.2567785" lon="114.2280976">
<ele>110.900</ele>
<time>2017-11-12T05:26:12.985Z</time>
</trkpt>
<trkpt lat="22.2567785" lon="114.2280976">
<ele>110.868</ele>
<time>2017-11-12T05:26:13.085Z</time>
</trkpt>
<trkpt lat="22.2568758" lon="114.2281106">
<ele>110.836</ele>
<time>2017-11-12T05:26:25.657Z</time>
</trkpt>
<trkpt lat="22.2569658" lon="114.2281321">
<ele>115.438</ele>
<time>2017-11-12T05:26:32.984Z</time>
</trkpt>
<trkpt lat="22.2569658" lon="114.2281321">
<ele>127.472</ele>
<time>2017-11-12T05:26:46.984Z</time>
</trkpt>
<trkpt lat="22.2569658" lon="114.2281321">
<ele>137.494</ele>
<time>2017-11-12T05:26:47.084Z</time>
</trkpt>
<trkpt lat="22.2570730" lon="114.2281750">
<ele>137.269</ele>
<time>2017-11-12T05:26:55.984Z</time>
</trkpt>
<trkpt lat="22.2570730" lon="114.2281750">
<ele>133.259</ele>
<time>2017-11-12T05:27:15.983Z</time>
</trkpt>
<trkpt lat="22.2570730" lon="114.2281750">
<ele>132.816</ele>
<time>2017-11-12T05:27:51.304Z</time>
</trkpt>
<trkpt lat="22.2571683" lon="114.2282234">
<ele>134.979</ele>
<time>2017-11-12T05:28:10.406Z</time>
</trkpt>
<trkpt lat="22.2571433" lon="114.2283306">
<ele>138.402</ele>
<time>2017-11-12T05:28:21.123Z</time>
</trkpt>
<trkpt lat="22.2571348" lon="114.2284324">
<ele>143.492</ele>
<time>2017-11-12T05:28:30.232Z</time>
</trkpt>
<trkpt lat="22.2571285" lon="114.2285343">
<ele>148.072</ele>
<time>2017-11-12T05:28:40.124Z</time>
</trkpt>
<trkpt lat="22.2571394" lon="114.2286374">
<ele>150.081</ele>
<time>2017-11-12T05:28:50.763Z</time>
</trkpt>
<trkpt lat="22.2570971" lon="114.2287339">
<ele>150.243</ele>
<time>2017-11-12T05:29:00.202Z</time>
</trkpt>
<trkpt lat="22.2570642" lon="114.2288255">
<ele>149.701</ele>
<time>2017-11-12T05:29:07.041Z</time>
</trkpt>
<trkpt lat="22.2570243" lon="114.2289212">
<ele>149.181</ele>
<time>2017-11-12T05:29:14.050Z</time>
</trkpt>
<trkpt lat="22.2569797" lon="114.2290080">
<ele>148.925</ele>
<time>2017-11-12T05:29:20.370Z</time>
</trkpt>
<trkpt lat="22.2569124" lon="114.2290973">
<ele>148.828</ele>
<time>2017-11-12T05:29:27.542Z</time>
</trkpt>
<trkpt lat="22.2568251" lon="114.2291363">
<ele>148.750</ele>
<time>2017-11-12T05:29:34.079Z</time>
</trkpt>
<trkpt lat="22.2567704" lon="114.2292178">
<ele>148.643</ele>
<time>2017-11-12T05:29:40.320Z</time>
</trkpt>
<trkpt lat="22.2567151" lon="114.2293014">
<ele>148.518</ele>
<time>2017-11-12T05:29:46.324Z</time>
</trkpt>
<trkpt lat="22.2566633" lon="114.2293905">
<ele>148.448</ele>
<time>2017-11-12T05:29:52.695Z</time>
</trkpt>
<trkpt lat="22.2566211" lon="114.2294769">
<ele>148.470</ele>
<time>2017-11-12T05:29:59.021Z</time>
</trkpt>
<trkpt lat="22.2566146" lon="114.2295775">
<ele>148.500</ele>
<time>2017-11-12T05:30:06.621Z</time>
</trkpt>
<trkpt lat="22.2565791" lon="114.2296752">
<ele>148.464</ele>
<time>2017-11-12T05:30:15.079Z</time>
</trkpt>
<trkpt lat="22.2565486" lon="114.2297765">
<ele>148.360</ele>
<time>2017-11-12T05:30:21.978Z</time>
</trkpt>
<trkpt lat="22.2565486" lon="114.2297765">
<ele>148.238</ele>
<time>2017-11-12T05:30:23.978Z</time>
</trkpt>
<trkpt lat="22.2565486" lon="114.2297765">
<ele>148.149</ele>
<time>2017-11-12T05:30:38.159Z</time>
</trkpt>
<trkpt lat="22.2564794" lon="114.2298818">
<ele>148.114</ele>
<time>2017-11-12T05:30:59.144Z</time>
</trkpt>
<trkpt lat="22.2564923" lon="114.2299849">
<ele>148.110</ele>
<time>2017-11-12T05:31:09.957Z</time>
</trkpt>
<trkpt lat="22.2565633" lon="114.2300514">
<ele>148.051</ele>
<time>2017-11-12T05:31:17.619Z</time>
</trkpt>
<trkpt lat="22.2566097" lon="114.2301500">
<ele>147.869</ele>
<time>2017-11-12T05:31:25.371Z</time>
</trkpt>
<trkpt lat="22.2566287" lon="114.2302457">
<ele>147.617</ele>
<time>2017-11-12T05:31:32.863Z</time>
</trkpt>
<trkpt lat="22.2566795" lon="114.2303324">
<ele>147.356</ele>
<time>2017-11-12T05:31:40.254Z</time>
</trkpt>
<trkpt lat="22.2567207" lon="114.2304229">
<ele>146.991</ele>
<time>2017-11-12T05:31:47.559Z</time>
</trkpt>
<trkpt lat="22.2567855" lon="114.2304946">
<ele>146.247</ele>
<time>2017-11-12T05:31:56.713Z</time>
</trkpt>
<trkpt lat="22.2568683" lon="114.2305342">
<ele>145.088</ele>
<time>2017-11-12T05:32:06.938Z</time>
</trkpt>
<trkpt lat="22.2569557" lon="114.2305064">
<ele>144.094</ele>
<time>2017-11-12T05:32:17.081Z</time>
</trkpt>
<trkpt lat="22.2568548" lon="114.2305037">
<ele>143.896</ele>
<time>2017-11-12T05:32:28.244Z</time>
</trkpt>
<trkpt lat="22.2568356" lon="114.2304055">
<ele>144.650</ele>
<time>2017-11-12T05:32:39.225Z</time>
</trkpt>
<trkpt lat="22.2568209" lon="114.2303056">
<ele>146.356</ele>
<time>2017-11-12T05:32:53.189Z</time>
</trkpt>
<trkpt lat="22.2567451" lon="114.2302503">
<ele>149.302</ele>
<time>2017-11-12T05:33:06.981Z</time>
</trkpt>
<trkpt lat="22.2567451" lon="114.2302503">
<ele>152.925</ele>
<time>2017-11-12T05:33:17.981Z</time>
</trkpt>
<trkpt lat="22.2567451" lon="114.2302503">
<ele>155.147</ele>
<time>2017-11-12T05:33:18.081Z</time>
</trkpt>
<trkpt lat="22.2567500" lon="114.2301117">
<ele>154.952</ele>
<time>2017-11-12T05:33:30.980Z</time>
</trkpt>
<trkpt lat="22.2567500" lon="114.2301117">
<ele>154.003</ele>
<time>2017-11-12T05:33:46.980Z</time>
</trkpt>
<trkpt lat="22.2567500" lon="114.2301117">
<ele>153.863</ele>
<time>2017-11-12T05:34:06.161Z</time>
</trkpt>
<trkpt lat="22.2566967" lon="114.2298514">
<ele>154.309</ele>
<time>2017-11-12T05:34:40.979Z</time>
</trkpt>
<trkpt lat="22.2566967" lon="114.2298514">
<ele>154.595</ele>
<time>2017-11-12T05:34:56.978Z</time>
</trkpt>
<trkpt lat="22.2566967" lon="114.2298514">
<ele>154.558</ele>
<time>2017-11-12T05:34:57.078Z</time>
</trkpt>
<trkpt lat="22.2567505" lon="114.2299318">
<ele>154.389</ele>
<time>2017-11-12T05:35:24.040Z</time>
</trkpt>
<trkpt lat="22.2567906" lon="114.2300350">
<ele>154.391</ele>
<time>2017-11-12T05:35:41.977Z</time>
</trkpt>
<trkpt lat="22.2567906" lon="114.2300350">
<ele>154.377</ele>
<time>2017-11-12T05:35:45.977Z</time>
</trkpt>
<trkpt lat="22.2567906" lon="114.2300350">
<ele>154.314</ele>
<time>2017-11-12T05:35:46.077Z</time>
</trkpt>
<trkpt lat="22.2568625" lon="114.2301036">
<ele>154.200</ele>
<time>2017-11-12T05:36:03.236Z</time>
</trkpt>
<trkpt lat="22.2569520" lon="114.2300797">
<ele>154.915</ele>
<time>2017-11-12T05:36:08.976Z</time>
</trkpt>
<trkpt lat="22.2569520" lon="114.2300797">
<ele>156.812</ele>
<time>2017-11-12T05:36:12.976Z</time>
</trkpt>
<trkpt lat="22.2569520" lon="114.2300797">
<ele>158.370</ele>
<time>2017-11-12T05:36:16.158Z</time>
</trkpt>
<trkpt lat="22.2569984" lon="114.2299851">
<ele>157.374</ele>
<time>2017-11-12T05:36:42.837Z</time>
</trkpt>
<trkpt lat="22.2570106" lon="114.2298885">
<ele>157.766</ele>
<time>2017-11-12T05:36:54.346Z</time>
</trkpt>
<trkpt lat="22.2570161" lon="114.2297914">
<ele>160.621</ele>
<time>2017-11-12T05:37:04.885Z</time>
</trkpt>
<trkpt lat="22.2570310" lon="114.2296873">
<ele>164.699</ele>
<time>2017-11-12T05:37:13.894Z</time>
</trkpt>
<trkpt lat="22.2570609" lon="114.2295828">
<ele>167.906</ele>
<time>2017-11-12T05:37:22.112Z</time>
</trkpt>
<trkpt lat="22.2570906" lon="114.2294860">
<ele>169.460</ele>
<time>2017-11-12T05:37:30.470Z</time>
</trkpt>
<trkpt lat="22.2571526" lon="114.2294038">
<ele>169.694</ele>
<time>2017-11-12T05:37:39.860Z</time>
</trkpt>
<trkpt lat="22.2571453" lon="114.2292993">
<ele>169.479</ele>
<time>2017-11-12T05:37:48.170Z</time>
</trkpt>
<trkpt lat="22.2571757" lon="114.2291878">
<ele>169.504</ele>
<time>2017-11-12T05:37:57.858Z</time>
</trkpt>
<trkpt lat="22.2572021" lon="114.2290819">
<ele>170.001</ele>
<time>2017-11-12T05:38:06.954Z</time>
</trkpt>
<trkpt lat="22.2572864" lon="114.2290238">
<ele>170.845</ele>
<time>2017-11-12T05:38:13.646Z</time>
</trkpt>
<trkpt lat="22.2573529" lon="114.2289339">
<ele>171.998</ele>
<time>2017-11-12T05:38:19.526Z</time>
</trkpt>
<trkpt lat="22.2574107" lon="114.2288577">
<ele>173.309</ele>
<time>2017-11-12T05:38:24.057Z</time>
</trkpt>
<trkpt lat="22.2574585" lon="114.2287702">
<ele>174.277</ele>
<time>2017-11-12T05:38:28.990Z</time>
</trkpt>
<trkpt lat="22.2575458" lon="114.2287290">
<ele>174.792</ele>
<time>2017-11-12T05:38:34.959Z</time>
</trkpt>
<trkpt lat="22.2576366" lon="114.2286968">
<ele>175.166</ele>
<time>2017-11-12T05:38:41.979Z</time>
</trkpt>
<trkpt lat="22.2576366" lon="114.2286968">
<ele>175.442</ele>
<time>2017-11-12T05:38:45.979Z</time>
</trkpt>
<trkpt lat="22.2576366" lon="114.2286968">
<ele>175.510</ele>
<time>2017-11-12T05:38:46.154Z</time>
</trkpt>
<trkpt lat="22.2577535" lon="114.2286995">
<ele>175.298</ele>
<time>2017-11-12T05:38:54.979Z</time>
</trkpt>
<trkpt lat="22.2577535" lon="114.2286995">
<ele>175.227</ele>
<time>2017-11-12T05:38:57.979Z</time>
</trkpt>
<trkpt lat="22.2577535" lon="114.2286995">
<ele>175.183</ele>
<time>2017-11-12T05:39:04.266Z</time>
</trkpt>
<trkpt lat="22.2576622" lon="114.2287011">
<ele>175.068</ele>
<time>2017-11-12T05:39:19.662Z</time>
</trkpt>
<trkpt lat="22.2575774" lon="114.2287514">
<ele>175.097</ele>
<time>2017-11-12T05:39:29.398Z</time>
</trkpt>
<trkpt lat="22.2574926" lon="114.2287850">
<ele>175.276</ele>
<time>2017-11-12T05:39:37.869Z</time>
</trkpt>
<trkpt lat="22.2574264" lon="114.2288597">
<ele>175.492</ele>
<time>2017-11-12T05:39:45.949Z</time>
</trkpt>
<trkpt lat="22.2573719" lon="114.2289436">
<ele>175.521</ele>
<time>2017-11-12T05:39:52.512Z</time>
</trkpt>
<trkpt lat="22.2573211" lon="114.2290336">
<ele>173.638</ele>
<time>2017-11-12T05:39:59.505Z</time>
</trkpt>
<trkpt lat="22.2573226" lon="114.2291475">
<ele>169.028</ele>
<time>2017-11-12T05:40:07.771Z</time>
</trkpt>
<trkpt lat="22.2573124" lon="114.2292459">
<ele>164.436</ele>
<time>2017-11-12T05:40:16.181Z</time>
</trkpt>
<trkpt lat="22.2572983" lon="114.2293456">
<ele>162.392</ele>
<time>2017-11-12T05:40:23.734Z</time>
</trkpt>
<trkpt lat="22.2573125" lon="114.2294510">
<ele>162.390</ele>
<time>2017-11-12T05:40:31.847Z</time>
</trkpt>
<trkpt lat="22.2572723" lon="114.2295462">
<ele>163.340</ele>
<time>2017-11-12T05:40:40.214Z</time>
</trkpt>
<trkpt lat="22.2571965" lon="114.2296009">
<ele>164.484</ele>
<time>2017-11-12T05:40:47.940Z</time>
</trkpt>
<trkpt lat="22.2571895" lon="114.2296998">
<ele>165.966</ele>
<time>2017-11-12T05:40:55.641Z</time>
</trkpt>
<trkpt lat="22.2571059" lon="114.2297585">
<ele>167.958</ele>
<time>2017-11-12T05:41:03.820Z</time>
</trkpt>
<trkpt lat="22.2570562" lon="114.2298534">
<ele>168.875</ele>
<time>2017-11-12T05:41:11.627Z</time>
</trkpt>
<trkpt lat="22.2570033" lon="114.2299321">
<ele>167.568</ele>
<time>2017-11-12T05:41:18.960Z</time>
</trkpt>
<trkpt lat="22.2570095" lon="114.2300314">
<ele>165.609</ele>
<time>2017-11-12T05:41:28.116Z</time>
</trkpt>
<trkpt lat="22.2569289" lon="114.2301020">
<ele>164.613</ele>
<time>2017-11-12T05:41:39.766Z</time>
</trkpt>
<trkpt lat="22.2568387" lon="114.2301324">
<ele>164.161</ele>
<time>2017-11-12T05:41:48.975Z</time>
</trkpt>
<trkpt lat="22.2568387" lon="114.2301324">
<ele>163.517</ele>
<time>2017-11-12T05:41:55.974Z</time>
</trkpt>
<trkpt lat="22.2568387" lon="114.2301324">
<ele>162.945</ele>
<time>2017-11-12T05:41:56.074Z</time>
</trkpt>
<trkpt lat="22.2567420" lon="114.2302298">
<ele>162.886</ele>
<time>2017-11-12T05:42:35.945Z</time>
</trkpt>
<trkpt lat="22.2567990" lon="114.2303057">
<ele>162.667</ele>
<time>2017-11-12T05:42:46.930Z</time>
</trkpt>
<trkpt lat="22.2568541" lon="114.2303831">
<ele>160.611</ele>
<time>2017-11-12T05:42:56.810Z</time>
</trkpt>
<trkpt lat="22.2569303" lon="114.2304387">
<ele>159.819</ele>
<time>2017-11-12T05:43:06.973Z</time>
</trkpt>
<trkpt lat="22.2569303" lon="114.2304387">
<ele>159.455</ele>
<time>2017-11-12T05:43:07.973Z</time>
</trkpt>
<trkpt lat="22.2569303" lon="114.2304387">
<ele>159.237</ele>
<time>2017-11-12T05:43:38.575Z</time>
</trkpt>
<trkpt lat="22.2568953" lon="114.2305473">
<ele>159.244</ele>
<time>2017-11-12T05:43:59.399Z</time>
</trkpt>
<trkpt lat="22.2568088" lon="114.2305175">
<ele>157.404</ele>
<time>2017-11-12T05:44:10.004Z</time>
</trkpt>
<trkpt lat="22.2567231" lon="114.2304731">
<ele>152.579</ele>
<time>2017-11-12T05:44:20.971Z</time>
</trkpt>
<trkpt lat="22.2566436" lon="114.2304150">
<ele>147.719</ele>
<time>2017-11-12T05:44:32.212Z</time>
</trkpt>
<trkpt lat="22.2566001" lon="114.2303287">
<ele>145.709</ele>
<time>2017-11-12T05:44:42.710Z</time>
</trkpt>
<trkpt lat="22.2565550" lon="114.2302430">
<ele>145.980</ele>
<time>2017-11-12T05:44:53.269Z</time>
</trkpt>
<trkpt lat="22.2565325" lon="114.2301479">
<ele>147.205</ele>
<time>2017-11-12T05:45:03.411Z</time>
</trkpt>
<trkpt lat="22.2565392" lon="114.2300430">
<ele>148.419</ele>
<time>2017-11-12T05:45:12.636Z</time>
</trkpt>
<trkpt lat="22.2565387" lon="114.2299357">
<ele>149.155</ele>
<time>2017-11-12T05:45:20.969Z</time>
</trkpt>
<trkpt lat="22.2565387" lon="114.2299357">
<ele>149.387</ele>
<time>2017-11-12T05:45:25.969Z</time>
</trkpt>
<trkpt lat="22.2565387" lon="114.2299357">
<ele>149.318</ele>
<time>2017-11-12T05:45:28.077Z</time>
</trkpt>
<trkpt lat="22.2565362" lon="114.2298222">
<ele>149.195</ele>
<time>2017-11-12T05:45:43.780Z</time>
</trkpt>
<trkpt lat="22.2565433" lon="114.2297099">
<ele>149.148</ele>
<time>2017-11-12T05:45:52.145Z</time>
</trkpt>
<trkpt lat="22.2565589" lon="114.2296087">
<ele>149.213</ele>
<time>2017-11-12T05:45:58.571Z</time>
</trkpt>
<trkpt lat="22.2565981" lon="114.2295171">
<ele>149.392</ele>
<time>2017-11-12T05:46:05.264Z</time>
</trkpt>
<trkpt lat="22.2566330" lon="114.2294213">
<ele>149.674</ele>
<time>2017-11-12T05:46:11.928Z</time>
</trkpt>
<trkpt lat="22.2566666" lon="114.2293271">
<ele>149.993</ele>
<time>2017-11-12T05:46:18.227Z</time>
</trkpt>
<trkpt lat="22.2567657" lon="114.2293072">
<ele>150.158</ele>
<time>2017-11-12T05:46:24.439Z</time>
</trkpt>
<trkpt lat="22.2568602" lon="114.2292549">
<ele>150.070</ele>
<time>2017-11-12T05:46:30.275Z</time>
</trkpt>
<trkpt lat="22.2569309" lon="114.2291690">
<ele>149.890</ele>
<time>2017-11-12T05:46:36.300Z</time>
</trkpt>
<trkpt lat="22.2569721" lon="114.2290718">
<ele>149.759</ele>
<time>2017-11-12T05:46:42.420Z</time>
</trkpt>
<trkpt lat="22.2569758" lon="114.2289717">
<ele>149.672</ele>
<time>2017-11-12T05:46:48.685Z</time>
</trkpt>
<trkpt lat="22.2570191" lon="114.2288809">
<ele>149.623</ele>
<time>2017-11-12T05:46:55.383Z</time>
</trkpt>
<trkpt lat="22.2570764" lon="114.2288037">
<ele>149.709</ele>
<time>2017-11-12T05:47:01.596Z</time>
</trkpt>
<trkpt lat="22.2571426" lon="114.2287157">
<ele>149.968</ele>
<time>2017-11-12T05:47:08.535Z</time>
</trkpt>
<trkpt lat="22.2571725" lon="114.2286239">
<ele>150.247</ele>
<time>2017-11-12T05:47:14.873Z</time>
</trkpt>
<trkpt lat="22.2571828" lon="114.2285252">
<ele>150.433</ele>
<time>2017-11-12T05:47:22.349Z</time>
</trkpt>
<trkpt lat="22.2571766" lon="114.2284255">
<ele>150.546</ele>
<time>2017-11-12T05:47:30.973Z</time>
</trkpt>
<trkpt lat="22.2571766" lon="114.2284255">
<ele>150.587</ele>
<time>2017-11-12T05:47:42.972Z</time>
</trkpt>
<trkpt lat="22.2571766" lon="114.2284255">
<ele>150.556</ele>
<time>2017-11-12T05:48:19.334Z</time>
</trkpt>
<trkpt lat="22.2571605" lon="114.2282725">
<ele>150.489</ele>
<time>2017-11-12T05:48:35.971Z</time>
</trkpt>
<trkpt lat="22.2571605" lon="114.2282725">
<ele>150.430</ele>
<time>2017-11-12T05:48:42.971Z</time>
</trkpt>
<trkpt lat="22.2571605" lon="114.2282725">
<ele>150.391</ele>
<time>2017-11-12T05:48:43.071Z</time>
</trkpt>
<trkpt lat="22.2572885" lon="114.2282019">
<ele>150.353</ele>
<time>2017-11-12T05:48:57.847Z</time>
</trkpt>
<trkpt lat="22.2573841" lon="114.2281748">
<ele>150.588</ele>
<time>2017-11-12T05:49:04.300Z</time>
</trkpt>
<trkpt lat="22.2574751" lon="114.2281540">
<ele>151.277</ele>
<time>2017-11-12T05:49:10.456Z</time>
</trkpt>
<trkpt lat="22.2575517" lon="114.2280944">
<ele>152.097</ele>
<time>2017-11-12T05:49:16.980Z</time>
</trkpt>
<trkpt lat="22.2576271" lon="114.2280218">
<ele>152.856</ele>
<time>2017-11-12T05:49:24.921Z</time>
</trkpt>
<trkpt lat="22.2576635" lon="114.2279184">
<ele>153.612</ele>
<time>2017-11-12T05:49:33.970Z</time>
</trkpt>
<trkpt lat="22.2576635" lon="114.2279184">
<ele>154.158</ele>
<time>2017-11-12T05:49:33.970Z</time>
</trkpt>
<trkpt lat="22.2576635" lon="114.2279184">
<ele>154.325</ele>
<time>2017-11-12T05:51:18.699Z</time>
</trkpt>
<trkpt lat="22.2575389" lon="114.2280454">
<ele>154.067</ele>
<time>2017-11-12T05:51:27.967Z</time>
</trkpt>
<trkpt lat="22.2575389" lon="114.2280454">
<ele>153.976</ele>
<time>2017-11-12T05:51:29.967Z</time>
</trkpt>
<trkpt lat="22.2575389" lon="114.2280454">
<ele>153.940</ele>
<time>2017-11-12T05:51:30.067Z</time>
</trkpt>
<trkpt lat="22.2573133" lon="114.2282173">
<ele>153.903</ele>
<time>2017-11-12T05:51:40.826Z</time>
</trkpt>
<trkpt lat="22.2572145" lon="114.2282169">
<ele>153.639</ele>
<time>2017-11-12T05:51:43.341Z</time>
</trkpt>
<trkpt lat="22.2570453" lon="114.2281355">
<ele>152.984</ele>
<time>2017-11-12T05:51:46.035Z</time>
</trkpt>
<trkpt lat="22.2567361" lon="114.2280699">
<ele>152.128</ele>
<time>2017-11-12T05:51:49.324Z</time>
</trkpt>
<trkpt lat="22.2564312" lon="114.2279884">
<ele>151.401</ele>
<time>2017-11-12T05:51:52.294Z</time>
</trkpt>
<trkpt lat="22.2561336" lon="114.2278979">
<ele>150.578</ele>
<time>2017-11-12T05:51:55.190Z</time>
</trkpt>
<trkpt lat="22.2558320" lon="114.2278007">
<ele>149.195</ele>
<time>2017-11-12T05:51:58.127Z</time>
</trkpt>
<trkpt lat="22.2555277" lon="114.2277132">
<ele>147.195</ele>
<time>2017-11-12T05:52:01.141Z</time>
</trkpt>
<trkpt lat="22.2552129" lon="114.2276397">
<ele>144.850</ele>
<time>2017-11-12T05:52:04.547Z</time>
</trkpt>
<trkpt lat="22.2549653" lon="114.2275869">
<ele>142.313</ele>
<time>2017-11-12T05:52:07.499Z</time>
</trkpt>
<trkpt lat="22.2547361" lon="114.2275215">
<ele>139.633</ele>
<time>2017-11-12T05:52:10.405Z</time>
</trkpt>
<trkpt lat="22.2545063" lon="114.2275581">
<ele>136.969</ele>
<time>2017-11-12T05:52:13.443Z</time>
</trkpt>
<trkpt lat="22.2542747" lon="114.2275891">
<ele>134.681</ele>
<time>2017-11-12T05:52:17.516Z</time>
</trkpt>
<trkpt lat="22.2541272" lon="114.2275693">
<ele>132.807</ele>
<time>2017-11-12T05:52:20.725Z</time>
</trkpt>
<trkpt lat="22.2540040" lon="114.2274718">
<ele>131.005</ele>
<time>2017-11-12T05:52:24.196Z</time>
</trkpt>
<trkpt lat="22.2539307" lon="114.2273719">
<ele>129.094</ele>
<time>2017-11-12T05:52:26.713Z</time>
</trkpt>
<trkpt lat="22.2538566" lon="114.2272771">
<ele>127.297</ele>
<time>2017-11-12T05:52:28.754Z</time>
</trkpt>
<trkpt lat="22.2536660" lon="114.2271486">
<ele>125.852</ele>
<time>2017-11-12T05:52:31.735Z</time>
</trkpt>
<trkpt lat="22.2534447" lon="114.2269468">
<ele>124.738</ele>
<time>2017-11-12T05:52:34.697Z</time>
</trkpt>
<trkpt lat="22.2531617" lon="114.2267420">
<ele>123.744</ele>
<time>2017-11-12T05:52:37.821Z</time>
</trkpt>
<trkpt lat="22.2528642" lon="114.2265063">
<ele>122.522</ele>
<time>2017-11-12T05:52:41.279Z</time>
</trkpt>
<trkpt lat="22.2525964" lon="114.2262984">
<ele>120.927</ele>
<time>2017-11-12T05:52:44.545Z</time>
</trkpt>
<trkpt lat="22.2523604" lon="114.2260933">
<ele>119.025</ele>
<time>2017-11-12T05:52:47.702Z</time>
</trkpt>
<trkpt lat="22.2521268" lon="114.2258873">
<ele>116.842</ele>
<time>2017-11-12T05:52:51.112Z</time>
</trkpt>
<trkpt lat="22.2519064" lon="114.2257337">
<ele>114.516</ele>
<time>2017-11-12T05:52:54.421Z</time>
</trkpt>
<trkpt lat="22.2516659" lon="114.2255896">
<ele>112.140</ele>
<time>2017-11-12T05:52:59.175Z</time>
</trkpt>
<trkpt lat="22.2514971" lon="114.2255053">
<ele>109.718</ele>
<time>2017-11-12T05:53:02.887Z</time>
</trkpt>
<trkpt lat="22.2514031" lon="114.2254610">
<ele>107.430</ele>
<time>2017-11-12T05:53:04.990Z</time>
</trkpt>
<trkpt lat="22.2512496" lon="114.2253734">
<ele>105.550</ele>
<time>2017-11-12T05:53:09.557Z</time>
</trkpt>
<trkpt lat="22.2510528" lon="114.2252636">
<ele>104.078</ele>
<time>2017-11-12T05:53:14.458Z</time>
</trkpt>
<trkpt lat="22.2509725" lon="114.2251325">
<ele>102.740</ele>
<time>2017-11-12T05:53:17.292Z</time>
</trkpt>
<trkpt lat="22.2509735" lon="114.2250278">
<ele>101.417</ele>
<time>2017-11-12T05:53:19.148Z</time>
</trkpt>
<trkpt lat="22.2510754" lon="114.2247967">
<ele>100.199</ele>
<time>2017-11-12T05:53:23.689Z</time>
</trkpt>
<trkpt lat="22.2511469" lon="114.2246982">
<ele>99.114</ele>
<time>2017-11-12T05:53:25.909Z</time>
</trkpt>
<trkpt lat="22.2508502" lon="114.2242361">
<ele>97.607</ele>
<time>2017-11-12T05:53:35.886Z</time>
</trkpt>
<trkpt lat="22.2505805" lon="114.2242129">
<ele>96.422</ele>
<time>2017-11-12T05:53:40.142Z</time>
</trkpt>
<trkpt lat="22.2503870" lon="114.2242312">
<ele>94.498</ele>
<time>2017-11-12T05:53:42.663Z</time>
</trkpt>
<trkpt lat="22.2502400" lon="114.2242057">
<ele>92.178</ele>
<time>2017-11-12T05:53:44.698Z</time>
</trkpt>
<trkpt lat="22.2500588" lon="114.2241026">
<ele>89.751</ele>
<time>2017-11-12T05:53:47.953Z</time>
</trkpt>
<trkpt lat="22.2498022" lon="114.2239537">
<ele>87.592</ele>
<time>2017-11-12T05:53:52.144Z</time>
</trkpt>
<trkpt lat="22.2495454" lon="114.2237879">
<ele>85.919</ele>
<time>2017-11-12T05:53:55.443Z</time>
</trkpt>
<trkpt lat="22.2492353" lon="114.2235848">
<ele>84.500</ele>
<time>2017-11-12T05:53:58.966Z</time>
</trkpt>
<trkpt lat="22.2489904" lon="114.2234283">
<ele>83.004</ele>
<time>2017-11-12T05:54:01.723Z</time>
</trkpt>
<trkpt lat="22.2487345" lon="114.2232951">
<ele>81.076</ele>
<time>2017-11-12T05:54:04.579Z</time>
</trkpt>
<trkpt lat="22.2484808" lon="114.2232625">
<ele>78.829</ele>
<time>2017-11-12T05:54:07.249Z</time>
</trkpt>
<trkpt lat="22.2482612" lon="114.2232340">
<ele>76.732</ele>
<time>2017-11-12T05:54:09.840Z</time>
</trkpt>
<trkpt lat="22.2481193" lon="114.2231914">
<ele>74.759</ele>
<time>2017-11-12T05:54:11.836Z</time>
</trkpt>
<trkpt lat="22.2479775" lon="114.2231184">
<ele>72.708</ele>
<time>2017-11-12T05:54:14.379Z</time>
</trkpt>
<trkpt lat="22.2478443" lon="114.2229118">
<ele>70.844</ele>
<time>2017-11-12T05:54:18.679Z</time>
</trkpt>
<trkpt lat="22.2477762" lon="114.2226379">
<ele>69.436</ele>
<time>2017-11-12T05:54:22.622Z</time>
</trkpt>
<trkpt lat="22.2477749" lon="114.2223810">
<ele>68.325</ele>
<time>2017-11-12T05:54:25.759Z</time>
</trkpt>
<trkpt lat="22.2478248" lon="114.2221228">
<ele>67.168</ele>
<time>2017-11-12T05:54:28.944Z</time>
</trkpt>
<trkpt lat="22.2478320" lon="114.2218965">
<ele>65.810</ele>
<time>2017-11-12T05:54:31.708Z</time>
</trkpt>
<trkpt lat="22.2478784" lon="114.2216761">
<ele>64.251</ele>
<time>2017-11-12T05:54:34.627Z</time>
</trkpt>
<trkpt lat="22.2479184" lon="114.2214594">
<ele>62.467</ele>
<time>2017-11-12T05:54:37.813Z</time>
</trkpt>
<trkpt lat="22.2478235" lon="114.2212953">
<ele>60.484</ele>
<time>2017-11-12T05:54:40.969Z</time>
</trkpt>
<trkpt lat="22.2476761" lon="114.2212330">
<ele>58.620</ele>
<time>2017-11-12T05:54:43.799Z</time>
</trkpt>
<trkpt lat="22.2474948" lon="114.2212424">
<ele>57.226</ele>
<time>2017-11-12T05:54:46.868Z</time>
</trkpt>
<trkpt lat="22.2472972" lon="114.2212643">
<ele>56.260</ele>
<time>2017-11-12T05:54:49.977Z</time>
</trkpt>
<trkpt lat="22.2470268" lon="114.2212677">
<ele>55.333</ele>
<time>2017-11-12T05:54:53.514Z</time>
</trkpt>
<trkpt lat="22.2467698" lon="114.2212719">
<ele>54.108</ele>
<time>2017-11-12T05:54:56.519Z</time>
</trkpt>
<trkpt lat="22.2465056" lon="114.2212663">
<ele>52.415</ele>
<time>2017-11-12T05:54:59.664Z</time>
</trkpt>
<trkpt lat="22.2462896" lon="114.2212550">
<ele>50.282</ele>
<time>2017-11-12T05:55:02.701Z</time>
</trkpt>
<trkpt lat="22.2461699" lon="114.2212542">
<ele>47.979</ele>
<time>2017-11-12T05:55:04.968Z</time>
</trkpt>
<trkpt lat="22.2461699" lon="114.2212542">
<ele>46.070</ele>
<time>2017-11-12T05:55:08.968Z</time>
</trkpt>
<trkpt lat="22.2461699" lon="114.2212542">
<ele>45.153</ele>
<time>2017-11-12T05:59:57.725Z</time>
</trkpt>
<trkpt lat="22.2460194" lon="114.2212164">
<ele>45.232</ele>
<time>2017-11-12T06:00:05.704Z</time>
</trkpt>
<trkpt lat="22.2458425" lon="114.2211993">
<ele>45.669</ele>
<time>2017-11-12T06:00:08.826Z</time>
</trkpt>
<trkpt lat="22.2456737" lon="114.2211724">
<ele>45.969</ele>
<time>2017-11-12T06:00:10.787Z</time>
</trkpt>
<trkpt lat="22.2453834" lon="114.2211230">
<ele>46.141</ele>
<time>2017-11-12T06:00:13.990Z</time>
</trkpt>
<trkpt lat="22.2451288" lon="114.2210941">
<ele>46.325</ele>
<time>2017-11-12T06:00:17.032Z</time>
</trkpt>
<trkpt lat="22.2449182" lon="114.2210818">
<ele>46.455</ele>
<time>2017-11-12T06:00:20.240Z</time>
</trkpt>
<trkpt lat="22.2447825" lon="114.2211703">
<ele>46.281</ele>
<time>2017-11-12T06:00:24.520Z</time>
</trkpt>
<trkpt lat="22.2446970" lon="114.2212332">
<ele>45.769</ele>
<time>2017-11-12T06:00:28.082Z</time>
</trkpt>
<trkpt lat="22.2446016" lon="114.2212787">
<ele>45.170</ele>
<time>2017-11-12T06:00:32.374Z</time>
</trkpt>
<trkpt lat="22.2445089" lon="114.2213143">
<ele>44.713</ele>
<time>2017-11-12T06:00:36.091Z</time>
</trkpt>
<trkpt lat="22.2444211" lon="114.2213516">
<ele>44.468</ele>
<time>2017-11-12T06:00:39.966Z</time>
</trkpt>
<trkpt lat="22.2444211" lon="114.2213516">
<ele>44.403</ele>
<time>2017-11-12T06:00:48.966Z</time>
</trkpt>
<trkpt lat="22.2444211" lon="114.2213516">
<ele>44.398</ele>
<time>2017-11-12T06:00:54.569Z</time>
</trkpt>
<trkpt lat="22.2441906" lon="114.2214706">
<ele>44.397</ele>
<time>2017-11-12T06:01:06.009Z</time>
</trkpt>
<trkpt lat="22.2440476" lon="114.2215396">
<ele>44.434</ele>
<time>2017-11-12T06:01:08.304Z</time>
</trkpt>
<trkpt lat="22.2438332" lon="114.2216546">
<ele>44.597</ele>
<time>2017-11-12T06:01:11.308Z</time>
</trkpt>
<trkpt lat="22.2435940" lon="114.2217801">
<ele>45.058</ele>
<time>2017-11-12T06:01:14.377Z</time>
</trkpt>
<trkpt lat="22.2433385" lon="114.2219012">
<ele>45.786</ele>
<time>2017-11-12T06:01:17.814Z</time>
</trkpt>
<trkpt lat="22.2431305" lon="114.2220171">
<ele>46.399</ele>
<time>2017-11-12T06:01:22.748Z</time>
</trkpt>
<trkpt lat="22.2429936" lon="114.2220708">
<ele>46.474</ele>
<time>2017-11-12T06:01:28.003Z</time>
</trkpt>
<trkpt lat="22.2428883" lon="114.2220404">
<ele>45.978</ele>
<time>2017-11-12T06:01:31.718Z</time>
</trkpt>
<trkpt lat="22.2427819" lon="114.2220481">
<ele>45.318</ele>
<time>2017-11-12T06:01:34.128Z</time>
</trkpt>
<trkpt lat="22.2425941" lon="114.2219942">
<ele>45.035</ele>
<time>2017-11-12T06:01:37.753Z</time>
</trkpt>
<trkpt lat="22.2424204" lon="114.2219991">
<ele>45.247</ele>
<time>2017-11-12T06:01:40.548Z</time>
</trkpt>
<trkpt lat="22.2422479" lon="114.2220017">
<ele>45.596</ele>
<time>2017-11-12T06:01:42.900Z</time>
</trkpt>
<trkpt lat="22.2420275" lon="114.2220369">
<ele>45.764</ele>
<time>2017-11-12T06:01:45.596Z</time>
</trkpt>
<trkpt lat="22.2417441" lon="114.2219956">
<ele>45.820</ele>
<time>2017-11-12T06:01:49.275Z</time>
</trkpt>
<trkpt lat="22.2415247" lon="114.2219663">
<ele>45.975</ele>
<time>2017-11-12T06:01:52.414Z</time>
</trkpt>
<trkpt lat="22.2413317" lon="114.2218680">
<ele>46.255</ele>
<time>2017-11-12T06:01:55.740Z</time>
</trkpt>
<trkpt lat="22.2411926" lon="114.2217044">
<ele>46.406</ele>
<time>2017-11-12T06:01:59.372Z</time>
</trkpt>
<trkpt lat="22.2410657" lon="114.2215523">
<ele>46.259</ele>
<time>2017-11-12T06:02:02.232Z</time>
</trkpt>
<trkpt lat="22.2408807" lon="114.2214861">
<ele>45.964</ele>
<time>2017-11-12T06:02:04.812Z</time>
</trkpt>
<trkpt lat="22.2406855" lon="114.2214137">
<ele>45.729</ele>
<time>2017-11-12T06:02:07.746Z</time>
</trkpt>
<trkpt lat="22.2404404" lon="114.2214758">
<ele>45.599</ele>
<time>2017-11-12T06:02:12.713Z</time>
</trkpt>
<trkpt lat="22.2402883" lon="114.2214743">
<ele>45.516</ele>
<time>2017-11-12T06:02:16.209Z</time>
</trkpt>
<trkpt lat="22.2401897" lon="114.2214766">
<ele>45.352</ele>
<time>2017-11-12T06:02:18.647Z</time>
</trkpt>
<trkpt lat="22.2400555" lon="114.2215015">
<ele>45.068</ele>
<time>2017-11-12T06:02:24.810Z</time>
</trkpt>
<trkpt lat="22.2399288" lon="114.2215278">
<ele>44.921</ele>
<time>2017-11-12T06:02:32.692Z</time>
</trkpt>
<trkpt lat="22.2398115" lon="114.2215446">
<ele>45.170</ele>
<time>2017-11-12T06:02:39.920Z</time>
</trkpt>
<trkpt lat="22.2397594" lon="114.2216355">
<ele>45.651</ele>
<time>2017-11-12T06:02:45.963Z</time>
</trkpt>
<trkpt lat="22.2397594" lon="114.2216355">
<ele>45.951</ele>
<time>2017-11-12T06:02:49.963Z</time>
</trkpt>
<trkpt lat="22.2397594" lon="114.2216355">
<ele>45.916</ele>
<time>2017-11-12T06:02:50.063Z</time>
</trkpt>
<trkpt lat="22.2396515" lon="114.2216590">
<ele>45.762</ele>
<time>2017-11-12T06:03:02.937Z</time>
</trkpt>
<trkpt lat="22.2395594" lon="114.2216801">
<ele>45.338</ele>
<time>2017-11-12T06:03:10.507Z</time>
</trkpt>
<trkpt lat="22.2394627" lon="114.2217046">
<ele>43.905</ele>
<time>2017-11-12T06:03:18.315Z</time>
</trkpt>
<trkpt lat="22.2393620" lon="114.2217178">
<ele>41.800</ele>
<time>2017-11-12T06:03:26.175Z</time>
</trkpt>
<trkpt lat="22.2392681" lon="114.2217499">
<ele>39.879</ele>
<time>2017-11-12T06:03:33.886Z</time>
</trkpt>
<trkpt lat="22.2391820" lon="114.2217877">
<ele>38.571</ele>
<time>2017-11-12T06:03:41.516Z</time>
</trkpt>
<trkpt lat="22.2390951" lon="114.2218201">
<ele>37.701</ele>
<time>2017-11-12T06:03:49.686Z</time>
</trkpt>
<trkpt lat="22.2390131" lon="114.2218622">
<ele>36.870</ele>
<time>2017-11-12T06:03:58.427Z</time>
</trkpt>
<trkpt lat="22.2389413" lon="114.2219326">
<ele>35.926</ele>
<time>2017-11-12T06:04:07.168Z</time>
</trkpt>
<trkpt lat="22.2388926" lon="114.2220220">
<ele>34.720</ele>
<time>2017-11-12T06:04:14.948Z</time>
</trkpt>
<trkpt lat="22.2388704" lon="114.2221164">
<ele>33.382</ele>
<time>2017-11-12T06:04:22.680Z</time>
</trkpt>
<trkpt lat="22.2388576" lon="114.2222145">
<ele>32.506</ele>
<time>2017-11-12T06:04:30.707Z</time>
</trkpt>
<trkpt lat="22.2388466" lon="114.2223255">
<ele>32.345</ele>
<time>2017-11-12T06:04:38.412Z</time>
</trkpt>
<trkpt lat="22.2388503" lon="114.2224273">
<ele>32.426</ele>
<time>2017-11-12T06:04:45.138Z</time>
</trkpt>
<trkpt lat="22.2388442" lon="114.2225372">
<ele>32.140</ele>
<time>2017-11-12T06:04:52.145Z</time>
</trkpt>
<trkpt lat="22.2388516" lon="114.2226424">
<ele>31.161</ele>
<time>2017-11-12T06:04:58.371Z</time>
</trkpt>
<trkpt lat="22.2388427" lon="114.2227502">
<ele>29.746</ele>
<time>2017-11-12T06:05:04.507Z</time>
</trkpt>
<trkpt lat="22.2388596" lon="114.2228579">
<ele>28.052</ele>
<time>2017-11-12T06:05:10.960Z</time>
</trkpt>
<trkpt lat="22.2388596" lon="114.2228579">
<ele>26.132</ele>
<time>2017-11-12T06:05:15.959Z</time>
</trkpt>
<trkpt lat="22.2388596" lon="114.2228579">
<ele>24.872</ele>
<time>2017-11-12T06:05:16.059Z</time>
</trkpt>
<trkpt lat="22.2388931" lon="114.2229589">
<ele>24.925</ele>
<time>2017-11-12T06:06:00.011Z</time>
</trkpt>
<trkpt lat="22.2389509" lon="114.2230389">
<ele>24.688</ele>
<time>2017-11-12T06:06:54.209Z</time>
</trkpt>
<trkpt lat="22.2390152" lon="114.2231221">
<ele>22.865</ele>
<time>2017-11-12T06:08:01.994Z</time>
</trkpt>
<trkpt lat="22.2390791" lon="114.2231986">
<ele>20.748</ele>
<time>2017-11-12T06:09:06.438Z</time>
</trkpt>
<trkpt lat="22.2391372" lon="114.2232791">
<ele>19.808</ele>
<time>2017-11-12T06:10:10.335Z</time>
</trkpt>
<trkpt lat="22.2391844" lon="114.2233654">
<ele>19.856</ele>
<time>2017-11-12T06:11:13.017Z</time>
</trkpt>
<trkpt lat="22.2391714" lon="114.2234659">
<ele>20.294</ele>
<time>2017-11-12T06:12:16.489Z</time>
</trkpt>
<trkpt lat="22.2391714" lon="114.2234659">
<ele>20.294</ele>
<time>2017-11-12T06:12:16.489Z</time>
</trkpt>
<trkpt lat="22.2391213" lon="114.2235648">
<ele>21.115</ele>
<time>2017-11-12T06:13:27.007Z</time>
</trkpt>
<trkpt lat="22.2392249" lon="114.2235942">
<ele>21.106</ele>
<time>2017-11-12T06:14:36.959Z</time>
</trkpt>
</trkseg>
<trkseg>
<trkpt lat="22.2389376" lon="114.2218675">
<ele>0.000</ele>
<time>2017-11-12T06:35:13.771Z</time>
</trkpt>
<trkpt lat="22.2390032" lon="114.2217978">
<ele>0.000</ele>
<time>2017-11-12T06:39:15.509Z</time>
</trkpt>
<trkpt lat="22.2390767" lon="114.2217261">
<ele>0.000</ele>
<time>2017-11-12T06:43:35.916Z</time>
</trkpt>
<trkpt lat="22.2391674" lon="114.2217067">
<ele>0.000</ele>
<time>2017-11-12T06:47:39.072Z</time>
</trkpt>
<trkpt lat="22.2392659" lon="114.2216756">
<ele>0.000</ele>
<time>2017-11-12T06:52:08.931Z</time>
</trkpt>
<trkpt lat="22.2393679" lon="114.2216685">
<ele>0.000</ele>
<time>2017-11-12T06:56:37.608Z</time>
</trkpt>
<trkpt lat="22.2394629" lon="114.2216603">
<ele>0.000</ele>
<time>2017-11-12T07:00:48.089Z</time>
</trkpt>
<trkpt lat="22.2395483" lon="114.2216241">
<ele>0.000</ele>
<time>2017-11-12T07:04:49.355Z</time>
</trkpt>
<trkpt lat="22.2396331" lon="114.2216647">
<ele>0.000</ele>
<time>2017-11-12T07:08:52.984Z</time>
</trkpt>
<trkpt lat="22.2397482" lon="114.2216384">
<ele>0.000</ele>
<time>2017-11-12T07:14:02.305Z</time>
</trkpt>
<trkpt lat="22.2398365" lon="114.2215982">
<ele>0.000</ele>
<time>2017-11-12T07:18:47.008Z</time>
</trkpt>
<trkpt lat="22.2398365" lon="114.2215982">
<ele>1.497</ele>
<time>2017-11-12T07:18:58.008Z</time>
</trkpt>
<trkpt lat="22.2398365" lon="114.2215982">
<ele>2.670</ele>
<time>2017-11-12T07:19:04.204Z</time>
</trkpt>
<trkpt lat="22.2399412" lon="114.2213635">
<ele>2.558</ele>
<time>2017-11-12T07:19:42.368Z</time>
</trkpt>
<trkpt lat="22.2400095" lon="114.2212731">
<ele>5.311</ele>
<time>2017-11-12T07:19:52.265Z</time>
</trkpt>
<trkpt lat="22.2400595" lon="114.2211819">
<ele>14.114</ele>
<time>2017-11-12T07:20:00.674Z</time>
</trkpt>
<trkpt lat="22.2401196" lon="114.2210966">
<ele>24.353</ele>
<time>2017-11-12T07:20:07.573Z</time>
</trkpt>
<trkpt lat="22.2401824" lon="114.2210117">
<ele>30.248</ele>
<time>2017-11-12T07:20:13.801Z</time>
</trkpt>
<trkpt lat="22.2402153" lon="114.2209156">
<ele>31.875</ele>
<time>2017-11-12T07:20:19.430Z</time>
</trkpt>
<trkpt lat="22.2402654" lon="114.2208260">
<ele>31.477</ele>
<time>2017-11-12T07:20:25.362Z</time>
</trkpt>
<trkpt lat="22.2403084" lon="114.2207352">
<ele>30.837</ele>
<time>2017-11-12T07:20:31.994Z</time>
</trkpt>
<trkpt lat="22.2403244" lon="114.2206384">
<ele>30.815</ele>
<time>2017-11-12T07:20:39.005Z</time>
</trkpt>
<trkpt lat="22.2403244" lon="114.2206384">
<ele>31.461</ele>
<time>2017-11-12T07:20:40.005Z</time>
</trkpt>
<trkpt lat="22.2403244" lon="114.2206384">
<ele>32.033</ele>
<time>2017-11-12T07:20:48.437Z</time>
</trkpt>
<trkpt lat="22.2402998" lon="114.2205379">
<ele>31.695</ele>
<time>2017-11-12T07:21:07.080Z</time>
</trkpt>
<trkpt lat="22.2403122" lon="114.2204377">
<ele>32.152</ele>
<time>2017-11-12T07:21:17.807Z</time>
</trkpt>
<trkpt lat="22.2403132" lon="114.2203373">
<ele>33.869</ele>
<time>2017-11-12T07:21:26.702Z</time>
</trkpt>
<trkpt lat="22.2403151" lon="114.2202340">
<ele>35.598</ele>
<time>2017-11-12T07:21:34.855Z</time>
</trkpt>
<trkpt lat="22.2403102" lon="114.2201367">
<ele>36.117</ele>
<time>2017-11-12T07:21:42.549Z</time>
</trkpt>
<trkpt lat="22.2402924" lon="114.2200405">
<ele>35.637</ele>
<time>2017-11-12T07:21:49.520Z</time>
</trkpt>
<trkpt lat="22.2402936" lon="114.2199347">
<ele>34.800</ele>
<time>2017-11-12T07:21:55.256Z</time>
</trkpt>
<trkpt lat="22.2402689" lon="114.2198365">
<ele>33.997</ele>
<time>2017-11-12T07:22:00.763Z</time>
</trkpt>
<trkpt lat="22.2403580" lon="114.2197929">
<ele>33.335</ele>
<time>2017-11-12T07:22:06.755Z</time>
</trkpt>
<trkpt lat="22.2404543" lon="114.2197482">
<ele>32.936</ele>
<time>2017-11-12T07:22:12.375Z</time>
</trkpt>
<trkpt lat="22.2405363" lon="114.2196942">
<ele>32.885</ele>
<time>2017-11-12T07:22:17.398Z</time>
</trkpt>
<trkpt lat="22.2406052" lon="114.2196313">
<ele>33.110</ele>
<time>2017-11-12T07:22:22.583Z</time>
</trkpt>
<trkpt lat="22.2406852" lon="114.2195740">
<ele>33.426</ele>
<time>2017-11-12T07:22:28.740Z</time>
</trkpt>
<trkpt lat="22.2407676" lon="114.2195159">
<ele>33.577</ele>
<time>2017-11-12T07:22:35.902Z</time>
</trkpt>
<trkpt lat="22.2408594" lon="114.2195101">
<ele>33.476</ele>
<time>2017-11-12T07:22:43.603Z</time>
</trkpt>
<trkpt lat="22.2407882" lon="114.2195746">
<ele>33.149</ele>
<time>2017-11-12T07:22:53.002Z</time>
</trkpt>
<trkpt lat="22.2407882" lon="114.2195746">
<ele>32.683</ele>
<time>2017-11-12T07:22:55.002Z</time>
</trkpt>
<trkpt lat="22.2407882" lon="114.2195746">
<ele>32.377</ele>
<time>2017-11-12T07:23:56.867Z</time>
</trkpt>
<trkpt lat="22.2407124" lon="114.2195193">
<ele>32.522</ele>
<time>2017-11-12T07:24:13.007Z</time>
</trkpt>
<trkpt lat="22.2407124" lon="114.2195193">
<ele>32.606</ele>
<time>2017-11-12T07:24:23.006Z</time>
</trkpt>
<trkpt lat="22.2407124" lon="114.2195193">
<ele>32.588</ele>
<time>2017-11-12T07:24:23.106Z</time>
</trkpt>
<trkpt lat="22.2407420" lon="114.2194037">
<ele>32.527</ele>
<time>2017-11-12T07:24:44.872Z</time>
</trkpt>
<trkpt lat="22.2408315" lon="114.2193754">
<ele>31.308</ele>
<time>2017-11-12T07:24:52.999Z</time>
</trkpt>
<trkpt lat="22.2409231" lon="114.2193152">
<ele>28.225</ele>
<time>2017-11-12T07:25:00.247Z</time>
</trkpt>
<trkpt lat="22.2410233" lon="114.2192576">
<ele>25.059</ele>
<time>2017-11-12T07:25:08.533Z</time>
</trkpt>
<trkpt lat="22.2411198" lon="114.2192689">
<ele>23.574</ele>
<time>2017-11-12T07:25:16.372Z</time>
</trkpt>
<trkpt lat="22.2411929" lon="114.2192078">
<ele>23.628</ele>
<time>2017-11-12T07:25:23.081Z</time>
</trkpt>
<trkpt lat="22.2412517" lon="114.2191324">
<ele>24.986</ele>
<time>2017-11-12T07:25:29.276Z</time>
</trkpt>
<trkpt lat="22.2413127" lon="114.2190599">
<ele>27.283</ele>
<time>2017-11-12T07:25:36.913Z</time>
</trkpt>
<trkpt lat="22.2412946" lon="114.2189611">
<ele>29.483</ele>
<time>2017-11-12T07:25:45.195Z</time>
</trkpt>
<trkpt lat="22.2413244" lon="114.2188602">
<ele>30.594</ele>
<time>2017-11-12T07:25:53.727Z</time>
</trkpt>
<trkpt lat="22.2413636" lon="114.2187655">
<ele>30.628</ele>
<time>2017-11-12T07:26:01.919Z</time>
</trkpt>
<trkpt lat="22.2413208" lon="114.2186732">
<ele>30.291</ele>
<time>2017-11-12T07:26:11.178Z</time>
</trkpt>
<trkpt lat="22.2413377" lon="114.2185633">
<ele>30.136</ele>
<time>2017-11-12T07:26:20.862Z</time>
</trkpt>
<trkpt lat="22.2412929" lon="114.2184747">
<ele>30.341</ele>
<time>2017-11-12T07:26:27.901Z</time>
</trkpt>
<trkpt lat="22.2412121" lon="114.2184121">
<ele>30.821</ele>
<time>2017-11-12T07:26:35.447Z</time>
</trkpt>
<trkpt lat="22.2411726" lon="114.2183123">
<ele>31.264</ele>
<time>2017-11-12T07:26:43.733Z</time>
</trkpt>
<trkpt lat="22.2412314" lon="114.2182370">
<ele>31.466</ele>
<time>2017-11-12T07:26:50.069Z</time>
</trkpt>
<trkpt lat="22.2412722" lon="114.2181478">
<ele>31.574</ele>
<time>2017-11-12T07:26:55.043Z</time>
</trkpt>
<trkpt lat="22.2412986" lon="114.2180420">
<ele>31.751</ele>
<time>2017-11-12T07:27:00.480Z</time>
</trkpt>
<trkpt lat="22.2413560" lon="114.2179546">
<ele>31.951</ele>
<time>2017-11-12T07:27:06.353Z</time>
</trkpt>
<trkpt lat="22.2413839" lon="114.2178565">
<ele>31.745</ele>
<time>2017-11-12T07:27:12.662Z</time>
</trkpt>
<trkpt lat="22.2414241" lon="114.2177639">
<ele>30.752</ele>
<time>2017-11-12T07:27:20.174Z</time>
</trkpt>
<trkpt lat="22.2415027" lon="114.2177159">
<ele>29.198</ele>
<time>2017-11-12T07:27:28.936Z</time>
</trkpt>
<trkpt lat="22.2415914" lon="114.2176740">
<ele>27.763</ele>
<time>2017-11-12T07:27:38.288Z</time>
</trkpt>
<trkpt lat="22.2416726" lon="114.2177186">
<ele>27.097</ele>
<time>2017-11-12T07:27:46.824Z</time>
</trkpt>
<trkpt lat="22.2417653" lon="114.2177493">
<ele>27.314</ele>
<time>2017-11-12T07:27:55.207Z</time>
</trkpt>
<trkpt lat="22.2418481" lon="114.2178043">
<ele>27.963</ele>
<time>2017-11-12T07:28:02.506Z</time>
</trkpt>
<trkpt lat="22.2419400" lon="114.2178172">
<ele>28.636</ele>
<time>2017-11-12T07:28:10.970Z</time>
</trkpt>
<trkpt lat="22.2419115" lon="114.2177037">
<ele>29.628</ele>
<time>2017-11-12T07:28:24.614Z</time>
</trkpt>
<trkpt lat="22.2420613" lon="114.2177883">
<ele>31.285</ele>
<time>2017-11-12T07:28:47.000Z</time>
</trkpt>
<trkpt lat="22.2420613" lon="114.2177883">
<ele>33.002</ele>
<time>2017-11-12T07:28:49.000Z</time>
</trkpt>
<trkpt lat="22.2420613" lon="114.2177883">
<ele>33.822</ele>
<time>2017-11-12T07:31:17.520Z</time>
</trkpt>
<trkpt lat="22.2421072" lon="114.2178746">
<ele>33.721</ele>
<time>2017-11-12T07:31:35.758Z</time>
</trkpt>
<trkpt lat="22.2421684" lon="114.2179676">
<ele>34.028</ele>
<time>2017-11-12T07:31:48.800Z</time>
</trkpt>
<trkpt lat="22.2422195" lon="114.2180688">
<ele>35.907</ele>
<time>2017-11-12T07:31:56.589Z</time>
</trkpt>
<trkpt lat="22.2423087" lon="114.2180861">
<ele>38.441</ele>
<time>2017-11-12T07:32:02.859Z</time>
</trkpt>
<trkpt lat="22.2423876" lon="114.2181453">
<ele>39.900</ele>
<time>2017-11-12T07:32:10.471Z</time>
</trkpt>
<trkpt lat="22.2424769" lon="114.2181658">
<ele>39.974</ele>
<time>2017-11-12T07:32:18.001Z</time>
</trkpt>
<trkpt lat="22.2425731" lon="114.2182008">
<ele>39.589</ele>
<time>2017-11-12T07:32:26.490Z</time>
</trkpt>
<trkpt lat="22.2426563" lon="114.2181583">
<ele>39.533</ele>
<time>2017-11-12T07:32:35.001Z</time>
</trkpt>
<trkpt lat="22.2426563" lon="114.2181583">
<ele>39.739</ele>
<time>2017-11-12T07:32:35.001Z</time>
</trkpt>
<trkpt lat="22.2426563" lon="114.2181583">
<ele>39.873</ele>
<time>2017-11-12T07:33:10.568Z</time>
</trkpt>
<trkpt lat="22.2428083" lon="114.2181607">
<ele>39.760</ele>
<time>2017-11-12T07:33:28.504Z</time>
</trkpt>
<trkpt lat="22.2428954" lon="114.2181296">
<ele>39.753</ele>
<time>2017-11-12T07:33:37.063Z</time>
</trkpt>
<trkpt lat="22.2429591" lon="114.2180559">
<ele>39.874</ele>
<time>2017-11-12T07:33:46.796Z</time>
</trkpt>
<trkpt lat="22.2430368" lon="114.2179961">
<ele>40.019</ele>
<time>2017-11-12T07:33:57.323Z</time>
</trkpt>
<trkpt lat="22.2431139" lon="114.2179336">
<ele>40.015</ele>
<time>2017-11-12T07:34:05.243Z</time>
</trkpt>
<trkpt lat="22.2431729" lon="114.2178563">
<ele>39.831</ele>
<time>2017-11-12T07:34:12.678Z</time>
</trkpt>
<trkpt lat="22.2432546" lon="114.2178149">
<ele>39.671</ele>
<time>2017-11-12T07:34:20.202Z</time>
</trkpt>
<trkpt lat="22.2433378" lon="114.2177601">
<ele>39.810</ele>
<time>2017-11-12T07:34:28.360Z</time>
</trkpt>
<trkpt lat="22.2434084" lon="114.2176864">
<ele>40.218</ele>
<time>2017-11-12T07:34:36.299Z</time>
</trkpt>
<trkpt lat="22.2434326" lon="114.2175836">
<ele>40.490</ele>
<time>2017-11-12T07:34:43.547Z</time>
</trkpt>
<trkpt lat="22.2434824" lon="114.2174814">
<ele>40.300</ele>
<time>2017-11-12T07:34:51.061Z</time>
</trkpt>
<trkpt lat="22.2435489" lon="114.2174075">
<ele>40.176</ele>
<time>2017-11-12T07:34:58.498Z</time>
</trkpt>
<trkpt lat="22.2436001" lon="114.2173206">
<ele>40.014</ele>
<time>2017-11-12T07:35:06.699Z</time>
</trkpt>
<trkpt lat="22.2436106" lon="114.2172100">
<ele>39.329</ele>
<time>2017-11-12T07:35:14.666Z</time>
</trkpt>
<trkpt lat="22.2436019" lon="114.2171128">
<ele>38.136</ele>
<time>2017-11-12T07:35:21.000Z</time>
</trkpt>
<trkpt lat="22.2436174" lon="114.2170085">
<ele>36.690</ele>
<time>2017-11-12T07:35:27.858Z</time>
</trkpt>
<trkpt lat="22.2436844" lon="114.2169427">
<ele>35.282</ele>
<time>2017-11-12T07:35:35.311Z</time>
</trkpt>
<trkpt lat="22.2437462" lon="114.2168639">
<ele>34.152</ele>
<time>2017-11-12T07:35:44.961Z</time>
</trkpt>
<trkpt lat="22.2438276" lon="114.2168044">
<ele>33.327</ele>
<time>2017-11-12T07:35:54.974Z</time>
</trkpt>
<trkpt lat="22.2439331" lon="114.2167863">
<ele>32.837</ele>
<time>2017-11-12T07:36:03.767Z</time>
</trkpt>
<trkpt lat="22.2440259" lon="114.2167998">
<ele>32.827</ele>
<time>2017-11-12T07:36:10.979Z</time>
</trkpt>
<trkpt lat="22.2441206" lon="114.2167830">
<ele>33.373</ele>
<time>2017-11-12T07:36:17.811Z</time>
</trkpt>
<trkpt lat="22.2442018" lon="114.2167293">
<ele>34.577</ele>
<time>2017-11-12T07:36:25.604Z</time>
</trkpt>
<trkpt lat="22.2442865" lon="114.2167708">
<ele>36.124</ele>
<time>2017-11-12T07:36:34.275Z</time>
</trkpt>
<trkpt lat="22.2443758" lon="114.2167476">
<ele>37.204</ele>
<time>2017-11-12T07:36:42.399Z</time>
</trkpt>
<trkpt lat="22.2444685" lon="114.2167158">
<ele>37.420</ele>
<time>2017-11-12T07:36:50.256Z</time>
</trkpt>
<trkpt lat="22.2445088" lon="114.2166237">
<ele>36.881</ele>
<time>2017-11-12T07:36:57.611Z</time>
</trkpt>
<trkpt lat="22.2445412" lon="114.2165309">
<ele>35.637</ele>
<time>2017-11-12T07:37:04.623Z</time>
</trkpt>
<trkpt lat="22.2446256" lon="114.2164883">
<ele>34.111</ele>
<time>2017-11-12T07:37:12.036Z</time>
</trkpt>
<trkpt lat="22.2447081" lon="114.2164362">
<ele>33.152</ele>
<time>2017-11-12T07:37:20.117Z</time>
</trkpt>
<trkpt lat="22.2448062" lon="114.2164302">
<ele>33.100</ele>
<time>2017-11-12T07:37:28.138Z</time>
</trkpt>
<trkpt lat="22.2448407" lon="114.2163347">
<ele>33.816</ele>
<time>2017-11-12T07:37:35.564Z</time>
</trkpt>
<trkpt lat="22.2448978" lon="114.2162580">
<ele>35.056</ele>
<time>2017-11-12T07:37:42.425Z</time>
</trkpt>
<trkpt lat="22.2449843" lon="114.2162167">
<ele>36.381</ele>
<time>2017-11-12T07:37:49.697Z</time>
</trkpt>
<trkpt lat="22.2450417" lon="114.2161329">
<ele>37.352</ele>
<time>2017-11-12T07:37:57.448Z</time>
</trkpt>
<trkpt lat="22.2451446" lon="114.2160953">
<ele>37.837</ele>
<time>2017-11-12T07:38:05.319Z</time>
</trkpt>
<trkpt lat="22.2452149" lon="114.2160256">
<ele>37.810</ele>
<time>2017-11-12T07:38:12.448Z</time>
</trkpt>
<trkpt lat="22.2451832" lon="114.2159254">
<ele>37.396</ele>
<time>2017-11-12T07:38:21.033Z</time>
</trkpt>
<trkpt lat="22.2452399" lon="114.2158489">
<ele>36.871</ele>
<time>2017-11-12T07:38:29.355Z</time>
</trkpt>
<trkpt lat="22.2453276" lon="114.2157906">
<ele>36.267</ele>
<time>2017-11-12T07:38:37.536Z</time>
</trkpt>
<trkpt lat="22.2454035" lon="114.2157357">
<ele>35.468</ele>
<time>2017-11-12T07:38:45.040Z</time>
</trkpt>
<trkpt lat="22.2454625" lon="114.2156575">
<ele>34.666</ele>
<time>2017-11-12T07:38:52.914Z</time>
</trkpt>
<trkpt lat="22.2455226" lon="114.2155684">
<ele>34.023</ele>
<time>2017-11-12T07:39:01.206Z</time>
</trkpt>
<trkpt lat="22.2455713" lon="114.2154830">
<ele>33.521</ele>
<time>2017-11-12T07:39:08.882Z</time>
</trkpt>
<trkpt lat="22.2456518" lon="114.2154399">
<ele>33.155</ele>
<time>2017-11-12T07:39:15.598Z</time>
</trkpt>
<trkpt lat="22.2457296" lon="114.2153821">
<ele>32.896</ele>
<time>2017-11-12T07:39:21.668Z</time>
</trkpt>
<trkpt lat="22.2458223" lon="114.2153486">
<ele>32.754</ele>
<time>2017-11-12T07:39:28.590Z</time>
</trkpt>
<trkpt lat="22.2459126" lon="114.2153167">
<ele>33.047</ele>
<time>2017-11-12T07:39:36.199Z</time>
</trkpt>
<trkpt lat="22.2459817" lon="114.2152337">
<ele>34.410</ele>
<time>2017-11-12T07:39:45.104Z</time>
</trkpt>
<trkpt lat="22.2460537" lon="114.2151733">
<ele>36.644</ele>
<time>2017-11-12T07:39:51.402Z</time>
</trkpt>
<trkpt lat="22.2461324" lon="114.2151085">
<ele>38.418</ele>
<time>2017-11-12T07:39:58.189Z</time>
</trkpt>
<trkpt lat="22.2462287" lon="114.2150935">
<ele>39.013</ele>
<time>2017-11-12T07:40:05.066Z</time>
</trkpt>
<trkpt lat="22.2463018" lon="114.2150247">
<ele>38.901</ele>
<time>2017-11-12T07:40:11.616Z</time>
</trkpt>
<trkpt lat="22.2463775" lon="114.2149605">
<ele>38.797</ele>
<time>2017-11-12T07:40:18.710Z</time>
</trkpt>
<trkpt lat="22.2464679" lon="114.2149259">
<ele>39.293</ele>
<time>2017-11-12T07:40:26.732Z</time>
</trkpt>
<trkpt lat="22.2465635" lon="114.2149350">
<ele>40.338</ele>
<time>2017-11-12T07:40:35.731Z</time>
</trkpt>
<trkpt lat="22.2466551" lon="114.2149088">
<ele>41.133</ele>
<time>2017-11-12T07:40:43.339Z</time>
</trkpt>
<trkpt lat="22.2467389" lon="114.2148632">
<ele>41.125</ele>
<time>2017-11-12T07:40:50.099Z</time>
</trkpt>
<trkpt lat="22.2467911" lon="114.2147758">
<ele>40.303</ele>
<time>2017-11-12T07:40:57.107Z</time>
</trkpt>
<trkpt lat="22.2468800" lon="114.2147086">
<ele>38.968</ele>
<time>2017-11-12T07:41:04.367Z</time>
</trkpt>
<trkpt lat="22.2469394" lon="114.2146307">
<ele>37.735</ele>
<time>2017-11-12T07:41:10.963Z</time>
</trkpt>
<trkpt lat="22.2469948" lon="114.2145525">
<ele>37.090</ele>
<time>2017-11-12T07:41:18.488Z</time>
</trkpt>
<trkpt lat="22.2470750" lon="114.2144798">
<ele>36.956</ele>
<time>2017-11-12T07:41:28.429Z</time>
</trkpt>
<trkpt lat="22.2471373" lon="114.2144079">
<ele>37.025</ele>
<time>2017-11-12T07:41:35.895Z</time>
</trkpt>
<trkpt lat="22.2472365" lon="114.2143697">
<ele>37.070</ele>
<time>2017-11-12T07:41:43.457Z</time>
</trkpt>
<trkpt lat="22.2473366" lon="114.2143501">
<ele>36.938</ele>
<time>2017-11-12T07:41:50.095Z</time>
</trkpt>
<trkpt lat="22.2474463" lon="114.2143262">
<ele>36.384</ele>
<time>2017-11-12T07:41:56.636Z</time>
</trkpt>
<trkpt lat="22.2475494" lon="114.2143039">
<ele>35.479</ele>
<time>2017-11-12T07:42:02.527Z</time>
</trkpt>
<trkpt lat="22.2476384" lon="114.2142832">
<ele>34.888</ele>
<time>2017-11-12T07:42:09.128Z</time>
</trkpt>
<trkpt lat="22.2477256" lon="114.2142508">
<ele>35.179</ele>
<time>2017-11-12T07:42:17.213Z</time>
</trkpt>
<trkpt lat="22.2478265" lon="114.2142176">
<ele>36.837</ele>
<time>2017-11-12T07:42:27.860Z</time>
</trkpt>
<trkpt lat="22.2479187" lon="114.2141996">
<ele>37.222</ele>
<time>2017-11-12T07:42:34.749Z</time>
</trkpt>
<trkpt lat="22.2480185" lon="114.2141704">
<ele>37.322</ele>
<time>2017-11-12T07:42:41.912Z</time>
</trkpt>
<trkpt lat="22.2481105" lon="114.2141102">
<ele>37.340</ele>
<time>2017-11-12T07:42:50.105Z</time>
</trkpt>
<trkpt lat="22.2482034" lon="114.2140999">
<ele>37.276</ele>
<time>2017-11-12T07:42:57.635Z</time>
</trkpt>
<trkpt lat="22.2482885" lon="114.2140637">
<ele>37.116</ele>
<time>2017-11-12T07:43:05.062Z</time>
</trkpt>
<trkpt lat="22.2483027" lon="114.2141686">
<ele>37.037</ele>
<time>2017-11-12T07:43:14.997Z</time>
</trkpt>
<trkpt lat="22.2483145" lon="114.2142652">
<ele>37.131</ele>
<time>2017-11-12T07:43:23.991Z</time>
</trkpt>
<trkpt lat="22.2483145" lon="114.2142652">
<ele>37.284</ele>
<time>2017-11-12T07:43:33.991Z</time>
</trkpt>
<trkpt lat="22.2483145" lon="114.2142652">
<ele>37.352</ele>
<time>2017-11-12T07:43:42.699Z</time>
</trkpt>
<trkpt lat="22.2483685" lon="114.2143460">
<ele>37.274</ele>
<time>2017-11-12T07:44:15.990Z</time>
</trkpt>
<trkpt lat="22.2483685" lon="114.2143460">
<ele>37.241</ele>
<time>2017-11-12T07:44:17.990Z</time>
</trkpt>
<trkpt lat="22.2483685" lon="114.2143460">
<ele>37.230</ele>
<time>2017-11-12T07:44:35.077Z</time>
</trkpt>
<trkpt lat="22.2484040" lon="114.2144714">
<ele>37.214</ele>
<time>2017-11-12T07:44:47.319Z</time>
</trkpt>
<trkpt lat="22.2483838" lon="114.2145776">
<ele>38.112</ele>
<time>2017-11-12T07:44:51.989Z</time>
</trkpt>
<trkpt lat="22.2483838" lon="114.2145776">
<ele>40.477</ele>
<time>2017-11-12T07:44:54.989Z</time>
</trkpt>
<trkpt lat="22.2483838" lon="114.2145776">
<ele>42.447</ele>
<time>2017-11-12T07:44:55.089Z</time>
</trkpt>
<trkpt lat="22.2484025" lon="114.2144696">
<ele>41.334</ele>
<time>2017-11-12T07:47:17.992Z</time>
</trkpt>
<trkpt lat="22.2484025" lon="114.2144696">
<ele>40.669</ele>
<time>2017-11-12T07:47:28.992Z</time>
</trkpt>
<trkpt lat="22.2484025" lon="114.2144696">
<ele>40.690</ele>
<time>2017-11-12T07:47:29.092Z</time>
</trkpt>
<trkpt lat="22.2483704" lon="114.2142833">
<ele>41.014</ele>
<time>2017-11-12T07:47:46.991Z</time>
</trkpt>
<trkpt lat="22.2483704" lon="114.2142833">
<ele>41.208</ele>
<time>2017-11-12T07:47:49.991Z</time>
</trkpt>
<trkpt lat="22.2483704" lon="114.2142833">
<ele>41.205</ele>
<time>2017-11-12T07:47:50.091Z</time>
</trkpt>
<trkpt lat="22.2483974" lon="114.2141615">
<ele>41.154</ele>
<time>2017-11-12T07:48:08.839Z</time>
</trkpt>
<trkpt lat="22.2483311" lon="114.2140795">
<ele>41.611</ele>
<time>2017-11-12T07:48:17.758Z</time>
</trkpt>
<trkpt lat="22.2482321" lon="114.2140767">
<ele>42.875</ele>
<time>2017-11-12T07:48:23.990Z</time>
</trkpt>
<trkpt lat="22.2482321" lon="114.2140767">
<ele>44.194</ele>
<time>2017-11-12T07:48:33.990Z</time>
</trkpt>
<trkpt lat="22.2482321" lon="114.2140767">
<ele>44.739</ele>
<time>2017-11-12T07:48:43.529Z</time>
</trkpt>
<trkpt lat="22.2481553" lon="114.2140039">
<ele>44.450</ele>
<time>2017-11-12T07:49:03.382Z</time>
</trkpt>
<trkpt lat="22.2480856" lon="114.2139260">
<ele>43.601</ele>
<time>2017-11-12T07:49:14.488Z</time>
</trkpt>
<trkpt lat="22.2481070" lon="114.2138210">
<ele>42.197</ele>
<time>2017-11-12T07:49:22.872Z</time>
</trkpt>
<trkpt lat="22.2481159" lon="114.2137157">
<ele>41.919</ele>
<time>2017-11-12T07:49:31.366Z</time>
</trkpt>
<trkpt lat="22.2481190" lon="114.2136049">
<ele>41.442</ele>
<time>2017-11-12T07:49:39.476Z</time>
</trkpt>
<trkpt lat="22.2481776" lon="114.2135309">
<ele>40.589</ele>
<time>2017-11-12T07:49:45.047Z</time>
</trkpt>
<trkpt lat="22.2482131" lon="114.2134190">
<ele>39.634</ele>
<time>2017-11-12T07:49:51.106Z</time>
</trkpt>
<trkpt lat="22.2482726" lon="114.2133437">
<ele>38.888</ele>
<time>2017-11-12T07:49:56.827Z</time>
</trkpt>
<trkpt lat="22.2483201" lon="114.2132520">
<ele>38.989</ele>
<time>2017-11-12T07:50:05.398Z</time>
</trkpt>
<trkpt lat="22.2483533" lon="114.2131595">
<ele>38.973</ele>
<time>2017-11-12T07:50:13.501Z</time>
</trkpt>
<trkpt lat="22.2484007" lon="114.2130662">
<ele>38.146</ele>
<time>2017-11-12T07:50:24.840Z</time>
</trkpt>
<trkpt lat="22.2484500" lon="114.2129794">
<ele>37.239</ele>
<time>2017-11-12T07:50:33.987Z</time>
</trkpt>
<trkpt lat="22.2484500" lon="114.2129794">
<ele>36.207</ele>
<time>2017-11-12T07:50:38.987Z</time>
</trkpt>
<trkpt lat="22.2484500" lon="114.2129794">
<ele>35.629</ele>
<time>2017-11-12T07:50:39.087Z</time>
</trkpt>
<trkpt lat="22.2485655" lon="114.2128706">
<ele>35.658</ele>
<time>2017-11-12T07:50:50.541Z</time>
</trkpt>
<trkpt lat="22.2485683" lon="114.2127636">
<ele>35.643</ele>
<time>2017-11-12T07:50:55.987Z</time>
</trkpt>
<trkpt lat="22.2485683" lon="114.2127636">
<ele>34.506</ele>
<time>2017-11-12T07:51:03.986Z</time>
</trkpt>
<trkpt lat="22.2485683" lon="114.2127636">
<ele>34.489</ele>
<time>2017-11-12T07:51:05.563Z</time>
</trkpt>
<trkpt lat="22.2486522" lon="114.2126521">
<ele>34.699</ele>
<time>2017-11-12T07:51:18.986Z</time>
</trkpt>
<trkpt lat="22.2486522" lon="114.2126521">
<ele>34.714</ele>
<time>2017-11-12T07:51:19.986Z</time>
</trkpt>
<trkpt lat="22.2486522" lon="114.2126521">
<ele>34.613</ele>
<time>2017-11-12T07:51:33.986Z</time>
</trkpt>
<trkpt lat="22.2486522" lon="114.2126521">
<ele>34.582</ele>
<time>2017-11-12T07:51:54.440Z</time>
</trkpt>
<trkpt lat="22.2486761" lon="114.2127526">
<ele>34.587</ele>
<time>2017-11-12T07:52:16.410Z</time>
</trkpt>
<trkpt lat="22.2487639" lon="114.2127872">
<ele>34.366</ele>
<time>2017-11-12T07:52:24.363Z</time>
</trkpt>
<trkpt lat="22.2488735" lon="114.2127728">
<ele>33.754</ele>
<time>2017-11-12T07:52:30.418Z</time>
</trkpt>
<trkpt lat="22.2489744" lon="114.2128024">
<ele>32.988</ele>
<time>2017-11-12T07:52:34.991Z</time>
</trkpt>
<trkpt lat="22.2489744" lon="114.2128024">
<ele>32.456</ele>
<time>2017-11-12T07:52:41.990Z</time>
</trkpt>
<trkpt lat="22.2489744" lon="114.2128024">
<ele>32.254</ele>
<time>2017-11-12T07:52:42.090Z</time>
</trkpt>
<trkpt lat="22.2490267" lon="114.2129317">
<ele>32.347</ele>
<time>2017-11-12T07:53:13.990Z</time>
</trkpt>
<trkpt lat="22.2490267" lon="114.2129317">
<ele>32.548</ele>
<time>2017-11-12T07:53:18.990Z</time>
</trkpt>
<trkpt lat="22.2490267" lon="114.2129317">
<ele>32.623</ele>
<time>2017-11-12T07:53:36.272Z</time>
</trkpt>
<trkpt lat="22.2491133" lon="114.2129806">
<ele>32.524</ele>
<time>2017-11-12T07:53:58.875Z</time>
</trkpt>
<trkpt lat="22.2491659" lon="114.2130598">
<ele>33.374</ele>
<time>2017-11-12T07:54:09.988Z</time>
</trkpt>
<trkpt lat="22.2491659" lon="114.2130598">
<ele>35.640</ele>
<time>2017-11-12T07:54:18.988Z</time>
</trkpt>
<trkpt lat="22.2491659" lon="114.2130598">
<ele>37.528</ele>
<time>2017-11-12T07:54:28.296Z</time>
</trkpt>
<trkpt lat="22.2489959" lon="114.2129836">
<ele>37.481</ele>
<time>2017-11-12T07:54:47.988Z</time>
</trkpt>
<trkpt lat="22.2489959" lon="114.2129836">
<ele>36.719</ele>
<time>2017-11-12T07:54:48.987Z</time>
</trkpt>
<trkpt lat="22.2489959" lon="114.2129836">
<ele>36.631</ele>
<time>2017-11-12T07:54:58.519Z</time>
</trkpt>
<trkpt lat="22.2489066" lon="114.2130203">
<ele>37.036</ele>
<time>2017-11-12T07:55:15.053Z</time>
</trkpt>
<trkpt lat="22.2488160" lon="114.2130479">
<ele>37.994</ele>
<time>2017-11-12T07:55:23.744Z</time>
</trkpt>
<trkpt lat="22.2487477" lon="114.2129625">
<ele>39.761</ele>
<time>2017-11-12T07:55:31.986Z</time>
</trkpt>
<trkpt lat="22.2487477" lon="114.2129625">
<ele>41.270</ele>
<time>2017-11-12T07:55:41.986Z</time>
</trkpt>
<trkpt lat="22.2487477" lon="114.2129625">
<ele>41.575</ele>
<time>2017-11-12T07:56:10.797Z</time>
</trkpt>
<trkpt lat="22.2487641" lon="114.2128513">
<ele>41.061</ele>
<time>2017-11-12T07:56:47.985Z</time>
</trkpt>
<trkpt lat="22.2487641" lon="114.2128513">
<ele>40.515</ele>
<time>2017-11-12T07:56:54.985Z</time>
</trkpt>
<trkpt lat="22.2487641" lon="114.2128513">
<ele>40.370</ele>
<time>2017-11-12T07:58:16.752Z</time>
</trkpt>
<trkpt lat="22.2487641" lon="114.2128513">
<ele>40.487</ele>
<time>2017-11-12T07:58:56.982Z</time>
</trkpt>
<trkpt lat="22.2487641" lon="114.2128513">
<ele>40.482</ele>
<time>2017-11-12T08:01:46.906Z</time>
</trkpt>
<trkpt lat="22.2486105" lon="114.2128667">
<ele>40.458</ele>
<time>2017-11-12T08:01:58.984Z</time>
</trkpt>
<trkpt lat="22.2486105" lon="114.2128667">
<ele>40.430</ele>
<time>2017-11-12T08:02:32.983Z</time>
</trkpt>
<trkpt lat="22.2486105" lon="114.2128667">
<ele>40.408</ele>
<time>2017-11-12T08:03:47.477Z</time>
</trkpt>
<trkpt lat="22.2485741" lon="114.2127741">
<ele>40.383</ele>
<time>2017-11-12T08:04:22.980Z</time>
</trkpt>
<trkpt lat="22.2485741" lon="114.2127741">
<ele>40.374</ele>
<time>2017-11-12T08:04:31.980Z</time>
</trkpt>
<trkpt lat="22.2485741" lon="114.2127741">
<ele>40.357</ele>
<time>2017-11-12T08:07:01.111Z</time>
</trkpt>
<trkpt lat="22.2486380" lon="114.2126914">
<ele>40.338</ele>
<time>2017-11-12T08:07:20.361Z</time>
</trkpt>
<trkpt lat="22.2486305" lon="114.2127982">
<ele>37.966</ele>
<time>2017-11-12T08:07:28.526Z</time>
</trkpt>
<trkpt lat="22.2485855" lon="114.2128940">
<ele>31.815</ele>
<time>2017-11-12T08:07:36.300Z</time>
</trkpt>
<trkpt lat="22.2485347" lon="114.2129829">
<ele>25.645</ele>
<time>2017-11-12T08:07:44.068Z</time>
</trkpt>
<trkpt lat="22.2484581" lon="114.2130380">
<ele>23.417</ele>
<time>2017-11-12T08:07:54.283Z</time>
</trkpt>
<trkpt lat="22.2484099" lon="114.2131211">
<ele>24.722</ele>
<time>2017-11-12T08:08:02.721Z</time>
</trkpt>
<trkpt lat="22.2483756" lon="114.2132121">
<ele>27.418</ele>
<time>2017-11-12T08:08:09.981Z</time>
</trkpt>
<trkpt lat="22.2483756" lon="114.2132121">
<ele>29.508</ele>
<time>2017-11-12T08:08:18.981Z</time>
</trkpt>
<trkpt lat="22.2483756" lon="114.2132121">
<ele>30.291</ele>
<time>2017-11-12T08:08:19.081Z</time>
</trkpt>
<trkpt lat="22.2483357" lon="114.2133564">
<ele>30.150</ele>
<time>2017-11-12T08:09:08.014Z</time>
</trkpt>
<trkpt lat="22.2482808" lon="114.2134464">
<ele>30.777</ele>
<time>2017-11-12T08:09:15.502Z</time>
</trkpt>
<trkpt lat="22.2482624" lon="114.2135421">
<ele>33.455</ele>
<time>2017-11-12T08:09:21.512Z</time>
</trkpt>
<trkpt lat="22.2481780" lon="114.2136053">
<ele>36.368</ele>
<time>2017-11-12T08:09:28.847Z</time>
</trkpt>
<trkpt lat="22.2481904" lon="114.2137039">
<ele>38.395</ele>
<time>2017-11-12T08:09:35.891Z</time>
</trkpt>
<trkpt lat="22.2481650" lon="114.2138112">
<ele>39.721</ele>
<time>2017-11-12T08:09:44.074Z</time>
</trkpt>
<trkpt lat="22.2481479" lon="114.2139206">
<ele>40.363</ele>
<time>2017-11-12T08:09:50.722Z</time>
</trkpt>
<trkpt lat="22.2482169" lon="114.2139943">
<ele>40.324</ele>
<time>2017-11-12T08:09:55.979Z</time>
</trkpt>
<trkpt lat="22.2482169" lon="114.2139943">
<ele>39.874</ele>
<time>2017-11-12T08:10:05.979Z</time>
</trkpt>
<trkpt lat="22.2482169" lon="114.2139943">
<ele>39.501</ele>
<time>2017-11-12T08:11:50.831Z</time>
</trkpt>
<trkpt lat="22.2482993" lon="114.2141216">
<ele>39.554</ele>
<time>2017-11-12T08:12:11.894Z</time>
</trkpt>
<trkpt lat="22.2481979" lon="114.2141240">
<ele>40.181</ele>
<time>2017-11-12T08:12:20.517Z</time>
</trkpt>
<trkpt lat="22.2480971" lon="114.2141489">
<ele>41.235</ele>
<time>2017-11-12T08:12:27.544Z</time>
</trkpt>
<trkpt lat="22.2480056" lon="114.2141553">
<ele>42.199</ele>
<time>2017-11-12T08:12:33.628Z</time>
</trkpt>
<trkpt lat="22.2479110" lon="114.2141660">
<ele>42.710</ele>
<time>2017-11-12T08:12:40.182Z</time>
</trkpt>
<trkpt lat="22.2478101" lon="114.2141835">
<ele>42.857</ele>
<time>2017-11-12T08:12:47.347Z</time>
</trkpt>
<trkpt lat="22.2477510" lon="114.2142637">
<ele>42.895</ele>
<time>2017-11-12T08:12:54.090Z</time>
</trkpt>
<trkpt lat="22.2476719" lon="114.2143178">
<ele>43.111</ele>
<time>2017-11-12T08:13:00.481Z</time>
</trkpt>
<trkpt lat="22.2475835" lon="114.2143429">
<ele>43.516</ele>
<time>2017-11-12T08:13:06.566Z</time>
</trkpt>
<trkpt lat="22.2474924" lon="114.2143346">
<ele>43.721</ele>
<time>2017-11-12T08:13:12.938Z</time>
</trkpt>
<trkpt lat="22.2474011" lon="114.2143562">
<ele>43.145</ele>
<time>2017-11-12T08:13:20.552Z</time>
</trkpt>
<trkpt lat="22.2473074" lon="114.2143627">
<ele>41.879</ele>
<time>2017-11-12T08:13:27.900Z</time>
</trkpt>
<trkpt lat="22.2472645" lon="114.2144572">
<ele>40.881</ele>
<time>2017-11-12T08:13:35.151Z</time>
</trkpt>
<trkpt lat="22.2471700" lon="114.2144960">
<ele>40.727</ele>
<time>2017-11-12T08:13:42.505Z</time>
</trkpt>
<trkpt lat="22.2470928" lon="114.2145608">
<ele>41.066</ele>
<time>2017-11-12T08:13:48.973Z</time>
</trkpt>
<trkpt lat="22.2470928" lon="114.2145608">
<ele>41.390</ele>
<time>2017-11-12T08:13:51.980Z</time>
</trkpt>
<trkpt lat="22.2470928" lon="114.2145608">
<ele>41.486</ele>
<time>2017-11-12T08:13:52.080Z</time>
</trkpt>
<trkpt lat="22.2470414" lon="114.2146431">
<ele>41.382</ele>
<time>2017-11-12T08:14:03.639Z</time>
</trkpt>
<trkpt lat="22.2469459" lon="114.2146575">
<ele>41.166</ele>
<time>2017-11-12T08:14:12.288Z</time>
</trkpt>
<trkpt lat="22.2468775" lon="114.2147248">
<ele>40.888</ele>
<time>2017-11-12T08:14:19.413Z</time>
</trkpt>
<trkpt lat="22.2467907" lon="114.2147615">
<ele>40.521</ele>
<time>2017-11-12T08:14:26.232Z</time>
</trkpt>
<trkpt lat="22.2467085" lon="114.2148022">
<ele>40.067</ele>
<time>2017-11-12T08:14:33.072Z</time>
</trkpt>
<trkpt lat="22.2466301" lon="114.2148527">
<ele>39.758</ele>
<time>2017-11-12T08:14:40.276Z</time>
</trkpt>
<trkpt lat="22.2465551" lon="114.2149097">
<ele>39.884</ele>
<time>2017-11-12T08:14:47.025Z</time>
</trkpt>
<trkpt lat="22.2465001" lon="114.2149901">
<ele>39.824</ele>
<time>2017-11-12T08:14:52.935Z</time>
</trkpt>
<trkpt lat="22.2464396" lon="114.2150628">
<ele>39.744</ele>
<time>2017-11-12T08:14:58.988Z</time>
</trkpt>
<trkpt lat="22.2463453" lon="114.2150509">
<ele>39.670</ele>
<time>2017-11-12T08:15:05.986Z</time>
</trkpt>
<trkpt lat="22.2462520" lon="114.2150815">
<ele>39.641</ele>
<time>2017-11-12T08:15:13.238Z</time>
</trkpt>
<trkpt lat="22.2461780" lon="114.2151485">
<ele>39.748</ele>
<time>2017-11-12T08:15:20.290Z</time>
</trkpt>
<trkpt lat="22.2460943" lon="114.2151093">
<ele>40.004</ele>
<time>2017-11-12T08:15:27.003Z</time>
</trkpt>
<trkpt lat="22.2460184" lon="114.2151821">
<ele>40.254</ele>
<time>2017-11-12T08:15:34.626Z</time>
</trkpt>
<trkpt lat="22.2459300" lon="114.2152122">
<ele>40.408</ele>
<time>2017-11-12T08:15:41.874Z</time>
</trkpt>
<trkpt lat="22.2458645" lon="114.2152806">
<ele>40.513</ele>
<time>2017-11-12T08:15:48.817Z</time>
</trkpt>
<trkpt lat="22.2457999" lon="114.2153489">
<ele>40.641</ele>
<time>2017-11-12T08:15:55.319Z</time>
</trkpt>
<trkpt lat="22.2457151" lon="114.2153955">
<ele>40.756</ele>
<time>2017-11-12T08:16:01.959Z</time>
</trkpt>
<trkpt lat="22.2456263" lon="114.2154300">
<ele>40.614</ele>
<time>2017-11-12T08:16:08.127Z</time>
</trkpt>
<trkpt lat="22.2455732" lon="114.2155171">
<ele>40.158</ele>
<time>2017-11-12T08:16:15.229Z</time>
</trkpt>
<trkpt lat="22.2455408" lon="114.2156176">
<ele>39.675</ele>
<time>2017-11-12T08:16:22.891Z</time>
</trkpt>
<trkpt lat="22.2455355" lon="114.2157247">
<ele>39.422</ele>
<time>2017-11-12T08:16:29.906Z</time>
</trkpt>
<trkpt lat="22.2455149" lon="114.2158264">
<ele>39.447</ele>
<time>2017-11-12T08:16:36.571Z</time>
</trkpt>
<trkpt lat="22.2454347" lon="114.2158744">
<ele>39.607</ele>
<time>2017-11-12T08:16:43.550Z</time>
</trkpt>
<trkpt lat="22.2453875" lon="114.2159758">
<ele>39.607</ele>
<time>2017-11-12T08:16:52.551Z</time>
</trkpt>
<trkpt lat="22.2453023" lon="114.2160308">
<ele>39.342</ele>
<time>2017-11-12T08:17:01.502Z</time>
</trkpt>
<trkpt lat="22.2452284" lon="114.2161022">
<ele>39.037</ele>
<time>2017-11-12T08:17:08.895Z</time>
</trkpt>
<trkpt lat="22.2451467" lon="114.2161471">
<ele>38.974</ele>
<time>2017-11-12T08:17:14.787Z</time>
</trkpt>
<trkpt lat="22.2450589" lon="114.2161740">
<ele>39.085</ele>
<time>2017-11-12T08:17:20.645Z</time>
</trkpt>
<trkpt lat="22.2449673" lon="114.2162229">
<ele>39.001</ele>
<time>2017-11-12T08:17:27.106Z</time>
</trkpt>
<trkpt lat="22.2448759" lon="114.2162827">
<ele>38.601</ele>
<time>2017-11-12T08:17:34.317Z</time>
</trkpt>
<trkpt lat="22.2448038" lon="114.2163550">
<ele>38.100</ele>
<time>2017-11-12T08:17:41.804Z</time>
</trkpt>
<trkpt lat="22.2447292" lon="114.2164284">
<ele>37.628</ele>
<time>2017-11-12T08:17:50.006Z</time>
</trkpt>
<trkpt lat="22.2446333" lon="114.2164555">
<ele>37.136</ele>
<time>2017-11-12T08:17:56.618Z</time>
</trkpt>
<trkpt lat="22.2445548" lon="114.2165151">
<ele>37.249</ele>
<time>2017-11-12T08:18:02.992Z</time>
</trkpt>
<trkpt lat="22.2445263" lon="114.2166170">
<ele>37.616</ele>
<time>2017-11-12T08:18:10.214Z</time>
</trkpt>
<trkpt lat="22.2444896" lon="114.2167144">
<ele>37.863</ele>
<time>2017-11-12T08:18:17.844Z</time>
</trkpt>
<trkpt lat="22.2444051" lon="114.2167475">
<ele>38.090</ele>
<time>2017-11-12T08:18:25.977Z</time>
</trkpt>
<trkpt lat="22.2443193" lon="114.2168012">
<ele>38.131</ele>
<time>2017-11-12T08:18:34.035Z</time>
</trkpt>
<trkpt lat="22.2442375" lon="114.2168454">
<ele>37.964</ele>
<time>2017-11-12T08:18:40.257Z</time>
</trkpt>
<trkpt lat="22.2441439" lon="114.2168444">
<ele>37.447</ele>
<time>2017-11-12T08:18:46.847Z</time>
</trkpt>
<trkpt lat="22.2440477" lon="114.2168055">
<ele>37.195</ele>
<time>2017-11-12T08:18:54.187Z</time>
</trkpt>
<trkpt lat="22.2439562" lon="114.2167840">
<ele>37.018</ele>
<time>2017-11-12T08:19:00.865Z</time>
</trkpt>
<trkpt lat="22.2438559" lon="114.2168013">
<ele>36.639</ele>
<time>2017-11-12T08:19:08.386Z</time>
</trkpt>
<trkpt lat="22.2437570" lon="114.2167874">
<ele>36.069</ele>
<time>2017-11-12T08:19:15.563Z</time>
</trkpt>
<trkpt lat="22.2436676" lon="114.2168071">
<ele>36.050</ele>
<time>2017-11-12T08:19:21.137Z</time>
</trkpt>
<trkpt lat="22.2436266" lon="114.2169148">
<ele>36.099</ele>
<time>2017-11-12T08:19:27.199Z</time>
</trkpt>
<trkpt lat="22.2436506" lon="114.2170087">
<ele>36.129</ele>
<time>2017-11-12T08:19:32.397Z</time>
</trkpt>
<trkpt lat="22.2436848" lon="114.2171022">
<ele>36.096</ele>
<time>2017-11-12T08:19:37.737Z</time>
</trkpt>
<trkpt lat="22.2436700" lon="114.2172122">
<ele>36.228</ele>
<time>2017-11-12T08:19:43.792Z</time>
</trkpt>
<trkpt lat="22.2436159" lon="114.2173002">
<ele>36.747</ele>
<time>2017-11-12T08:19:49.971Z</time>
</trkpt>
<trkpt lat="22.2436159" lon="114.2173002">
<ele>37.391</ele>
<time>2017-11-12T08:19:54.971Z</time>
</trkpt>
<trkpt lat="22.2436159" lon="114.2173002">
<ele>37.731</ele>
<time>2017-11-12T08:19:55.531Z</time>
</trkpt>
<trkpt lat="22.2435709" lon="114.2174050">
<ele>37.601</ele>
<time>2017-11-12T08:20:07.145Z</time>
</trkpt>
<trkpt lat="22.2435797" lon="114.2175035">
<ele>37.184</ele>
<time>2017-11-12T08:20:15.003Z</time>
</trkpt>
<trkpt lat="22.2435223" lon="114.2176032">
<ele>36.822</ele>
<time>2017-11-12T08:20:23.690Z</time>
</trkpt>
<trkpt lat="22.2434828" lon="114.2176997">
<ele>36.735</ele>
<time>2017-11-12T08:20:30.720Z</time>
</trkpt>
<trkpt lat="22.2434225" lon="114.2177823">
<ele>36.997</ele>
<time>2017-11-12T08:20:38.601Z</time>
</trkpt>
<trkpt lat="22.2434094" lon="114.2178830">
<ele>37.909</ele>
<time>2017-11-12T08:20:47.180Z</time>
</trkpt>
<trkpt lat="22.2433453" lon="114.2179610">
<ele>38.118</ele>
<time>2017-11-12T08:20:54.914Z</time>
</trkpt>
<trkpt lat="22.2432520" lon="114.2179797">
<ele>38.005</ele>
<time>2017-11-12T08:21:02.526Z</time>
</trkpt>
<trkpt lat="22.2431702" lon="114.2180304">
<ele>37.930</ele>
<time>2017-11-12T08:21:09.883Z</time>
</trkpt>
<trkpt lat="22.2430822" lon="114.2180547">
<ele>37.917</ele>
<time>2017-11-12T08:21:15.692Z</time>
</trkpt>
<trkpt lat="22.2429833" lon="114.2180751">
<ele>38.096</ele>
<time>2017-11-12T08:21:22.224Z</time>
</trkpt>
<trkpt lat="22.2428949" lon="114.2181119">
<ele>38.887</ele>
<time>2017-11-12T08:21:28.975Z</time>
</trkpt>
<trkpt lat="22.2428165" lon="114.2181715">
<ele>38.983</ele>
<time>2017-11-12T08:21:36.685Z</time>
</trkpt>
<trkpt lat="22.2427260" lon="114.2181690">
<ele>39.033</ele>
<time>2017-11-12T08:21:44.290Z</time>
</trkpt>
<trkpt lat="22.2426334" lon="114.2181541">
<ele>39.256</ele>
<time>2017-11-12T08:21:51.858Z</time>
</trkpt>
<trkpt lat="22.2425374" lon="114.2181143">
<ele>39.172</ele>
<time>2017-11-12T08:21:59.797Z</time>
</trkpt>
<trkpt lat="22.2424462" lon="114.2181343">
<ele>38.897</ele>
<time>2017-11-12T08:22:07.245Z</time>
</trkpt>
<trkpt lat="22.2423548" lon="114.2181060">
<ele>38.496</ele>
<time>2017-11-12T08:22:15.606Z</time>
</trkpt>
<trkpt lat="22.2422717" lon="114.2180508">
<ele>38.015</ele>
<time>2017-11-12T08:22:24.562Z</time>
</trkpt>
<trkpt lat="22.2421860" lon="114.2180095">
<ele>37.867</ele>
<time>2017-11-12T08:22:32.272Z</time>
</trkpt>
<trkpt lat="22.2420943" lon="114.2179508">
<ele>37.590</ele>
<time>2017-11-12T08:22:40.034Z</time>
</trkpt>
<trkpt lat="22.2420128" lon="114.2178976">
<ele>37.375</ele>
<time>2017-11-12T08:22:46.311Z</time>
</trkpt>
<trkpt lat="22.2419243" lon="114.2178483">
<ele>37.405</ele>
<time>2017-11-12T08:22:52.778Z</time>
</trkpt>
<trkpt lat="22.2418477" lon="114.2177834">
<ele>37.442</ele>
<time>2017-11-12T08:23:00.659Z</time>
</trkpt>
<trkpt lat="22.2418077" lon="114.2176872">
<ele>37.152</ele>
<time>2017-11-12T08:23:09.763Z</time>
</trkpt>
<trkpt lat="22.2417078" lon="114.2176587">
<ele>36.419</ele>
<time>2017-11-12T08:23:19.711Z</time>
</trkpt>
<trkpt lat="22.2416115" lon="114.2176454">
<ele>35.854</ele>
<time>2017-11-12T08:23:27.601Z</time>
</trkpt>
<trkpt lat="22.2415502" lon="114.2177301">
<ele>36.112</ele>
<time>2017-11-12T08:23:34.288Z</time>
</trkpt>
<trkpt lat="22.2414739" lon="114.2178061">
<ele>36.988</ele>
<time>2017-11-12T08:23:40.972Z</time>
</trkpt>
<trkpt lat="22.2414739" lon="114.2178061">
<ele>37.780</ele>
<time>2017-11-12T08:23:41.972Z</time>
</trkpt>
<trkpt lat="22.2414739" lon="114.2178061">
<ele>38.071</ele>
<time>2017-11-12T08:23:45.253Z</time>
</trkpt>
<trkpt lat="22.2413703" lon="114.2179457">
<ele>37.989</ele>
<time>2017-11-12T08:24:08.152Z</time>
</trkpt>
<trkpt lat="22.2412999" lon="114.2180091">
<ele>38.055</ele>
<time>2017-11-12T08:24:18.135Z</time>
</trkpt>
<trkpt lat="22.2412430" lon="114.2180998">
<ele>38.565</ele>
<time>2017-11-12T08:24:27.785Z</time>
</trkpt>
<trkpt lat="22.2411943" lon="114.2181928">
<ele>39.180</ele>
<time>2017-11-12T08:24:35.955Z</time>
</trkpt>
<trkpt lat="22.2411999" lon="114.2182903">
<ele>39.495</ele>
<time>2017-11-12T08:24:43.559Z</time>
</trkpt>
<trkpt lat="22.2412628" lon="114.2183656">
<ele>39.255</ele>
<time>2017-11-12T08:24:51.621Z</time>
</trkpt>
<trkpt lat="22.2412786" lon="114.2184625">
<ele>38.408</ele>
<time>2017-11-12T08:24:59.813Z</time>
</trkpt>
<trkpt lat="22.2413416" lon="114.2185422">
<ele>37.352</ele>
<time>2017-11-12T08:25:07.714Z</time>
</trkpt>
<trkpt lat="22.2414159" lon="114.2186196">
<ele>36.520</ele>
<time>2017-11-12T08:25:15.593Z</time>
</trkpt>
<trkpt lat="22.2414313" lon="114.2187215">
<ele>35.916</ele>
<time>2017-11-12T08:25:22.364Z</time>
</trkpt>
<trkpt lat="22.2414069" lon="114.2188213">
<ele>35.389</ele>
<time>2017-11-12T08:25:28.867Z</time>
</trkpt>
<trkpt lat="22.2413671" lon="114.2189202">
<ele>34.911</ele>
<time>2017-11-12T08:25:36.026Z</time>
</trkpt>
<trkpt lat="22.2413629" lon="114.2190250">
<ele>34.586</ele>
<time>2017-11-12T08:25:43.455Z</time>
</trkpt>
<trkpt lat="22.2412964" lon="114.2191107">
<ele>34.697</ele>
<time>2017-11-12T08:25:51.155Z</time>
</trkpt>
<trkpt lat="22.2412409" lon="114.2192009">
<ele>34.831</ele>
<time>2017-11-12T08:25:57.992Z</time>
</trkpt>
<trkpt lat="22.2412069" lon="114.2192978">
<ele>35.031</ele>
<time>2017-11-12T08:26:04.540Z</time>
</trkpt>
<trkpt lat="22.2411274" lon="114.2193534">
<ele>35.688</ele>
<time>2017-11-12T08:26:11.430Z</time>
</trkpt>
<trkpt lat="22.2410284" lon="114.2193578">
<ele>36.127</ele>
<time>2017-11-12T08:26:19.620Z</time>
</trkpt>
<trkpt lat="22.2409502" lon="114.2194303">
<ele>36.853</ele>
<time>2017-11-12T08:26:27.746Z</time>
</trkpt>
<trkpt lat="22.2408621" lon="114.2194728">
<ele>37.785</ele>
<time>2017-11-12T08:26:33.944Z</time>
</trkpt>
<trkpt lat="22.2407591" lon="114.2194997">
<ele>38.613</ele>
<time>2017-11-12T08:26:41.348Z</time>
</trkpt>
<trkpt lat="22.2406877" lon="114.2195631">
<ele>39.176</ele>
<time>2017-11-12T08:26:49.256Z</time>
</trkpt>
<trkpt lat="22.2406199" lon="114.2196367">
<ele>39.497</ele>
<time>2017-11-12T08:26:58.583Z</time>
</trkpt>
<trkpt lat="22.2405304" lon="114.2196055">
<ele>39.323</ele>
<time>2017-11-12T08:27:07.103Z</time>
</trkpt>
<trkpt lat="22.2404439" lon="114.2196580">
<ele>39.092</ele>
<time>2017-11-12T08:27:14.999Z</time>
</trkpt>
<trkpt lat="22.2404672" lon="114.2197634">
<ele>38.927</ele>
<time>2017-11-12T08:27:20.774Z</time>
</trkpt>
<trkpt lat="22.2404677" lon="114.2198639">
<ele>38.843</ele>
<time>2017-11-12T08:27:25.819Z</time>
</trkpt>
<trkpt lat="22.2404375" lon="114.2199627">
<ele>38.803</ele>
<time>2017-11-12T08:27:31.387Z</time>
</trkpt>
<trkpt lat="22.2404305" lon="114.2200633">
<ele>38.757</ele>
<time>2017-11-12T08:27:37.487Z</time>
</trkpt>
<trkpt lat="22.2404208" lon="114.2201742">
<ele>38.862</ele>
<time>2017-11-12T08:27:44.228Z</time>
</trkpt>
<trkpt lat="22.2404124" lon="114.2202872">
<ele>39.283</ele>
<time>2017-11-12T08:27:50.887Z</time>
</trkpt>
<trkpt lat="22.2404243" lon="114.2203884">
<ele>39.963</ele>
<time>2017-11-12T08:27:57.734Z</time>
</trkpt>
<trkpt lat="22.2403779" lon="114.2204788">
<ele>40.531</ele>
<time>2017-11-12T08:28:06.155Z</time>
</trkpt>
<trkpt lat="22.2403375" lon="114.2205839">
<ele>40.761</ele>
<time>2017-11-12T08:28:14.873Z</time>
</trkpt>
<trkpt lat="22.2403431" lon="114.2206824">
<ele>40.635</ele>
<time>2017-11-12T08:28:22.574Z</time>
</trkpt>
<trkpt lat="22.2402786" lon="114.2207621">
<ele>40.479</ele>
<time>2017-11-12T08:28:31.299Z</time>
</trkpt>
<trkpt lat="22.2402768" lon="114.2208693">
<ele>40.528</ele>
<time>2017-11-12T08:28:38.822Z</time>
</trkpt>
<trkpt lat="22.2402591" lon="114.2209781">
<ele>40.294</ele>
<time>2017-11-12T08:28:45.640Z</time>
</trkpt>
<trkpt lat="22.2402209" lon="114.2210684">
<ele>39.518</ele>
<time>2017-11-12T08:28:51.801Z</time>
</trkpt>
<trkpt lat="22.2401698" lon="114.2211498">
<ele>39.297</ele>
<time>2017-11-12T08:28:58.450Z</time>
</trkpt>
<trkpt lat="22.2401286" lon="114.2212429">
<ele>39.029</ele>
<time>2017-11-12T08:29:06.689Z</time>
</trkpt>
<trkpt lat="22.2400779" lon="114.2213257">
<ele>38.703</ele>
<time>2017-11-12T08:29:15.029Z</time>
</trkpt>
<trkpt lat="22.2400921" lon="114.2214244">
<ele>38.191</ele>
<time>2017-11-12T08:29:23.464Z</time>
</trkpt>
<trkpt lat="22.2400376" lon="114.2215022">
<ele>37.540</ele>
<time>2017-11-12T08:29:31.062Z</time>
</trkpt>
<trkpt lat="22.2399756" lon="114.2215857">
<ele>37.606</ele>
<time>2017-11-12T08:29:38.377Z</time>
</trkpt>
<trkpt lat="22.2399051" lon="114.2216670">
<ele>37.389</ele>
<time>2017-11-12T08:29:46.008Z</time>
</trkpt>
<trkpt lat="22.2398109" lon="114.2216937">
<ele>36.603</ele>
<time>2017-11-12T08:29:52.975Z</time>
</trkpt>
<trkpt lat="22.2397201" lon="114.2217012">
<ele>35.927</ele>
<time>2017-11-12T08:29:58.121Z</time>
</trkpt>
<trkpt lat="22.2396143" lon="114.2216909">
<ele>35.756</ele>
<time>2017-11-12T08:30:03.561Z</time>
</trkpt>
<trkpt lat="22.2395359" lon="114.2216311">
<ele>36.076</ele>
<time>2017-11-12T08:30:09.240Z</time>
</trkpt>
<trkpt lat="22.2394368" lon="114.2216593">
<ele>36.113</ele>
<time>2017-11-12T08:30:16.973Z</time>
</trkpt>
<trkpt lat="22.2393849" lon="114.2217389">
<ele>36.064</ele>
<time>2017-11-12T08:30:24.913Z</time>
</trkpt>
<trkpt lat="22.2392958" lon="114.2217891">
<ele>35.914</ele>
<time>2017-11-12T08:30:33.796Z</time>
</trkpt>
<trkpt lat="22.2391974" lon="114.2218074">
<ele>35.562</ele>
<time>2017-11-12T08:30:41.375Z</time>
</trkpt>
<trkpt lat="22.2391356" lon="114.2218798">
<ele>35.106</ele>
<time>2017-11-12T08:30:47.661Z</time>
</trkpt>
<trkpt lat="22.2390808" lon="114.2219619">
<ele>34.787</ele>
<time>2017-11-12T08:30:54.027Z</time>
</trkpt>
<trkpt lat="22.2390479" lon="114.2220595">
<ele>34.675</ele>
<time>2017-11-12T08:31:02.290Z</time>
</trkpt>
<trkpt lat="22.2389632" lon="114.2221018">
<ele>34.539</ele>
<time>2017-11-12T08:31:11.417Z</time>
</trkpt>
<trkpt lat="22.2389204" lon="114.2221893">
<ele>33.958</ele>
<time>2017-11-12T08:31:21.199Z</time>
</trkpt>
<trkpt lat="22.2389001" lon="114.2222929">
<ele>32.061</ele>
<time>2017-11-12T08:31:31.501Z</time>
</trkpt>
<trkpt lat="22.2389259" lon="114.2223986">
<ele>31.333</ele>
<time>2017-11-12T08:31:40.737Z</time>
</trkpt>
<trkpt lat="22.2389467" lon="114.2225078">
<ele>30.685</ele>
<time>2017-11-12T08:31:49.673Z</time>
</trkpt>
<trkpt lat="22.2389264" lon="114.2226047">
<ele>29.726</ele>
<time>2017-11-12T08:31:57.650Z</time>
</trkpt>
<trkpt lat="22.2389280" lon="114.2227091">
<ele>28.595</ele>
<time>2017-11-12T08:32:04.112Z</time>
</trkpt>
<trkpt lat="22.2389838" lon="114.2228072">
<ele>27.285</ele>
<time>2017-11-12T08:32:10.723Z</time>
</trkpt>
<trkpt lat="22.2389708" lon="114.2229108">
<ele>26.030</ele>
<time>2017-11-12T08:32:17.496Z</time>
</trkpt>
<trkpt lat="22.2390548" lon="114.2229687">
<ele>24.337</ele>
<time>2017-11-12T08:32:26.992Z</time>
</trkpt>
<trkpt lat="22.2391522" lon="114.2229449">
<ele>23.173</ele>
<time>2017-11-12T08:32:36.965Z</time>
</trkpt>
</trkseg>
<trkseg>
<trkpt lat="22.2392747" lon="114.2230428">
<ele>20.611</ele>
<time>2017-11-12T08:32:50.965Z</time>
</trkpt>
</trkseg>
</trk>
<extensions>
<fpdata xmlns="http://www.motionx.com/GPX-Extensions/1/1" sfv="10" origin="MotionXGPSFull 24.4 Build 5112 R64">
<bin enc="base64">
RgIAAAACAAAAZtq8tvGB1kEBAAAACpwnzQGC1kEAAJb33HfAQOcEAACIzREAr1trx4G+
QEChuJ1bTpw0QAAAAAAOAAAAVlJTIFByZXRyaXAgeAAWAAAATm92IDEyLCAyMDE3IDEx
OjU4IGFtAAAAAABBnCfNAYLWQWGpatEBgtZBzk+YAGqsnTf0S2FALAAAAAAAAAA9HeSz
RI5cQMYW5PIvPTZAr1trx4G+QEAAAAAAAAA5QAAAAAAAACBAAAAAAAC0kkAAAAAAAAAA
AAAAAAD0KFyPwsFzQEjypVxYwkNAAQAAAPAvRijZzm0/AQAAAAEAAABTw6HicojDP8U/
yAxYb7y/AQAAAAEAAAAEAAAASTi9B0JTYUAAAAAAAAAAAAAAAAAAAAAAAAAAAAAAAAAA
AAAAAAAAAAAAAAAAAAAA4joAALLDvcwBgtZBAAAAAAAAAAAAAAAAAAAAAP8lRLwCAAAA
AAAAAAAAAAABAAAAJwAAADI0LjIgQnVpbGQgNTA2M1I2NCwgTVhBRSA4LjEgYi4gNjI2
UjY0AAAAAAB5YgAAAQAAAAF4AAAA2sYHWjMHCFoEYd68tvGB1kFh3ry28YHWQQAAAAAA
pjA/AAAAAAJ72ry28YHWQeLOB2XygdZBAADgjF7JhUAAAAAAAjz0lbDygdZBfLR2u/KB
1kEAAOCUdiWHQAAAAAACN2/Ly/KB1kGiKvfP8oHWQQAAQALuqodAAAAAAALHgAjU8oHW
QeNTd+7ygdZBAADAZcj4ikAAAAAAAgx1UPXygdZBD5o49vKB1kEAACAGzRWLQAAAAAAC
7j0H+fKB1kEqAkf68oHWQQAAoI3FPYtAAAAAAALtKsj98oHWQcLE9wrzgdZBAABAyLjj
jEAAAAAAAuTcRw3zgdZBjgU2EvOB1kEAAIDdfYGNQAAAAAACLV6IFPOB1kG9UvcU84HW
QQAAgG9cj41AAAAAAALaBAgV84HWQTNthhXzgdZBAACgeimfjUAAAAAAAgDniRfzgdZB
pU65GPOB1kEAAEBvFsWNQAAAAAACdeTIG/OB1kF078cl84HWQQAAIM/3BI9AAAAAAAI6
54om84HWQcAJhyjzgdZBAADgH3xEj0AAAAAAAnHKCivzgdZBHqm0K/OB1kEAAID1t1mP
QAAAAAAC43DJK/OB1kEF+Acs84HWQQAAwNmIYY9AAAAAAALsTcgz84HWQe869TfzgdZB
AAAgeibnj0AAAAAAAiZsSTvzgdZBNPM3PvOB1kEAAPCteyKQQAAAAAACnMAKS/OB1kHC
w3Re84HWQQAAUOAbWZFAAAAAAAKBCEtm84HWQWCQdWnzgdZBAABAXsSLkUAAAAAAAtaP
jJHzgdZBcxH0lfOB1kEAABB4PNKRQAAAAAACworLpvOB1kGoGMen84HWQQAAcFb14ZFA
AAAAAAKp3Yiq84HWQerKCK7zgdZBAACAKvQZkkAAAAAAAublybbzgdZBFlI0ufOB1kEA
AIDtmkCSQAAAAAACOGsLxvOB1kEx67fa84HWQQAAEO1ii5NAAAAAAAKP4Ijd84HWQXid
RurzgdZBAACguz5XlEAAAAAAAmmqCvHzgdZBlSxICPSB1kEAAGDeFsuVQAAAAAAClEsK
CvSB1kE34LMN9IHWQQAAkCiwBZZAAAAAAAKIEc4Y9IHWQbN6xhr0gdZBAABAuzYllkAA
AAAAAhxdCB30gdZBsJFIJPSB1kEAAIAEOpmWQAAAAAACaeKIKPSB1kGeJvYo9IHWQQAA
0EcOoJZAAAAAAALNd5Q69IHWQTgztFD0gdZBAACA/gkCmEAAAAAAAhC0C130gdZBmGwy
efSB1kEAAACHdcSZQAAAAAACMsdHe/SB1kHk98Z79IHWQQAAIJJozJlAAAAAAAJmLMp7
9IHWQdI5R3z0gdZBAADgaDnUmUAAAAAAAnE7S370gdZBtMgzhfSB1kEAABA9wkKaQAAA
AAACVmDKkPSB1kEOLvOs9IHWQQAAkBhPBZxAAAAAAALcYcqv9IHWQa4tsvX0gdZBAADY
6uUxoEAAAAAAAv61R/f0gdZBbttGF/WB1kEAAFgW3zGhQAAAAAACXB7HGPWB1kH+LLEh
9YHWQQAAaIsveaFAAAAAAAJujMo19YHWQVqDszj1gdZBAADIQneQoUAAAAAAAqT9yWz1
gdZBNL8FbvWB1kEAAEhPVZqhQAAAAAACP/5IifWB1kEg7TGP9YHWQQAAUMacyaFAAAAA
AAKo/weS9YHWQdy7spT1gdZBAADwp/LeoUAAAAAAAvJiR5b1gdZBnN/GmfWB1kEAAECN
7vqhQAAAAAACJ7/HnPWB1kHsL8ak9YHWQQAAaBPiOqJAAAAAAAIOhQeq9YHWQQK9tKv1
gdZBAAAI00tIokAAAAAAAnhIR7D1gdZB4Ct2uvWB1kEAAEjuwpmiQAAAAAACo3hHwfWB
1kFh/EXO9YHWQQAAOAy3AaNAAAAAAAKLNQfS9YHWQUxQRuz1gdZBAABA4q/To0AAAAAA
AvhOSO71gdZB1gOwAfaB1kEAADCJ7W6kQAAAAAACwf8GBfaB1kEkYG8I9oHWQQAASIww
iqRAAAAAAAJd+QcL9oHWQf4pdB32gdZBAABQEZIdpUAAAAAAAq3eySv2gdZBkUT0L/aB
1kEAAHBA5T6lQAAAAAACEYwINfaB1kGnWzE89oHWQQAAIL0reKVAAAAAAAKazEY+9oHW
QZ2esz72gdZBAAA4TZJ7pUAAAAAAAhZMxz72gdZBG0dFP/aB1kEAAGAlgn+lQAAAAAAC
AAMHQvaB1kHUn/Bs9oHWQQAAAAzP1qZAAAAAAAKOAAl/9oHWQcf0sID2gdZBAADIrQ7k
pkAAAAAAAkY/Ror2gdZBcOzGjPaB1kEAABgXFPimQAAAAAACB0SIofaB1kE+svSi9oHW
QQAA0Ih3A6dAAAAAAAKWJci89oHWQXUEh7/2gdZBAADIf24Zp0AAAAAAAhiZCM32gdZB
5q3F1faB1kEAADgmV1+nQAAAAAACn48L2/aB1kH/lm3d9oHWQQAAOGFncqdAAAAAAAJG
6cbf9oHWQeI68OX2gdZBAAAY7rGjp0AAAAAAAk9YBuj2gdZBrrkt7faB1kEAABD57Myn
QAAAAAACrANI+faB1kH2eUYc94HWQQAAYKvg5KhAAAAAAAIK2AYj94HWQQbXsEf3gdZB
AABAozAKqkAAAAAAApUOyEr3gdZB1VkGT/eB1kEAAED9IiyqQAAAAAACj1JIXPeB1kEn
okVg94HWQQAAAHoNTKpAAAAAAAKAuUZk94HWQcYzr2z3gdZBAAAwTFGPqkAAAAAAAgA8
R273gdZBBMZxc/eB1kEAAFCcpbiqQAAAAAACOdPFdfeB1kE4MrKZ94HWQQAASJQI2KtA
AAAAAAKYbQeb94HWQXXLxZz3gdZBAAAwg/vlq0AAAAAAAroPxp/3gdZBNPEsyfeB1kEA
AACPMjGtQAAAAAACAFSIzveB1kGSXizb94HWQQAAkONSlq1AAAAAAAKcakfm94HWQeJx
xf33gdZBAADAHUNSrkAAAAAAAhuCxwD4gdZBl4zsH/iB1kEAAKBxa0uvQAAAAAAC00wH
LfiB1kHWdAQv+IHWQQAAuLFUW69AAAAAAAJoIsQw+IHWQSqpxDv4gdZBAADI51izr0AA
AAAAAjJaSVf4gdZBAACtWPiB1kEAADgWdr6vQAAAAAACiSWGWfiB1kFqL0aP+IHWQQAA
oDI7trBAAAAAAALdCwnZ+IHWQcK9RuT4gdZBAAA0+jHjsEAAAAAAAkBQx+f4gdZB0nKD
AvmB1kEAAHyEIk6xQAAAAAAC+rbEA/mB1kFvRkMn+YHWQQAAUMIc3LFAAAAAAAMJiqw7
+YHWQQmKrDv5gdZBAACReLkoskAAAAAABHDwg7L5gdZBcPCDsvmB1kEAAF0SFwS0QAAA
AAABmlyFKPmB1kE+k1n++YHWQQAA4JxtM7VAAAAAAAMUBhYI+oHWQRQGFgj6gdZBAADg
nG0ztUAAAAAAAq/s5FP9gdZBCOPGeP2B1kEAAER29ca1QAAAAAACahFIgf2B1kFwKEaS
/YHWQQAAXNLtCrZAAAAAAALtfgmW/YHWQSQQ27P9gdZBAAA4FzSCtkAAAAAAAlorScb9
gdZBXvEFyv2B1kEAAEgvJ5G2QAAAAAACAyQJzf2B1kFdT8UM/oHWQQAAsNwXkLdAAAAA
AALMDZA0/oHWQUKuBUX+gdZBAACIXu7Rt0AAAAAAAiAOCFD+gdZB0PGa6f6B1kEAAEjt
OTi6QAAAAAAC5A6I8v6B1kF4t8T0/oHWQQAAmI8sQbpAAAAAAAIsDMr6/oHWQeemBf7+
gdZBAACE+hpOukAAAAAAAmIODCD/gdZB5MGEJP+B1kEAAIzI/V+6QAAAAAACUu3PKP+B
1kHWdJgp/4HWQQAAnOYfY7pAAAAAAAKWXkYt/4HWQUI9lDT/gdZBAABMYVeAukAAAAAA
Av4tRzr/gdZBGNEEVP+B1kEAALTtTee6QAAAAAACPpaGVf+B1kGwNkVa/4HWQQAAfG9I
+rpAAAAAAALym8dd/4HWQep7RF7/gdZBAABc7zv8ukAAAAAAAkBtxmj/gdZBM/3Hcv+B
1kEAACgvQiS7QAAAAAAClnqHev+B1kE3Ugd8/4HWQQAArI1BKrtAAAAAAAITmoiC/4HW
QSWyBYv/gdZBAAD07TVMu0AAAAAAAlbTB5L/gdZBjpCEkv+B1kEAANTiKE67QAAAAAAC
OIVGmP+B1kHOMhOg/4HWQQAALJlbbbtAAAAAAAKNCQyw/4HWQf6YBLL/gdZBAADw1j11
u0AAAAAAAipuh8z/gdZB42yF0P+B1kEAANTRNYW7QAAAAAACL9/H/f+B1kGtiYQGAILW
QQAAzHsoqLtAAAAAAAIB+EcgAILWQcegRCQAgtZBAADkHhu4u0AAAAAAAvqACE0AgtZB
WigEXQCC1kEAAGS8Cfi7QAAAAAACHSEFZgCC1kHzkMR3AILWQQAAvHsHP7xAAAAAAAKK
6oaVAILWQYlBRrAAgtZBAAC41wSqvEAAAAAAAliShrEAgtZBcAsECwGC1kEAABi8+g++
QAAAAAACqp7IDAGC1kE2PsNDAYLWQQAASDrl675AAAAAAAEOvapIAYLWQQd9WckBgtZB
AAAWHVB3wEAAAAAAAbyRqMwBgtZB/P7uzAGC1kEAAJb33HfAQAAAAAAAAAAA
</bin>
</fpdata>
</extensions>
</gpx>
